NOAA Web Site Link Tides and Currents Home Page Transparent placeholder image

PORTS® Data Listing: 8632200 Kiptopeke, VA

CO-OPS RAW PORTS DATA

************************      PRELIMINARY DATA      ************************** 

     THIS RAW DATA HAS NOT BEEN SUBJECT TO THE NATIONAL OCEAN SERVICE'S        
     QUALITY CONTROL OR QUALITY ASSURANCE PROCEDURES AND DOES NOT MEET         
     THE CRITERIA AND STANDARDS OF OFFICIAL NATIONAL OCEAN SERVICE             
     DATA.  IT IS RELEASED FOR LIMITED PUBLIC USE AS PRELIMINARY DATA TO       
     BE USED ONLY WITH APPROPRIATE CAUTION.                                    

************************      PRELIMINARY DATA      ************************** 


       CD   -   Calendar date
       T    -   Time
       TZ   -   Timezone
       PW   -   Predicted water level (feet above MLLW)
       OW   -   Observed water level (feet above MLLW)
       WS   -   Wind speed (knots)
       WD   -   Wind direction (degrees true)
       WG   -   Wind gust (knots)
       AT   -   Air temperature (degrees farenheit)
       WT   -   Water temperature (degrees farenheit)
       AP   -   Air pressure (millibars)
       SA   -   Salinty (PSU - Practical Salinity Units)
       SG   -   Specific gravity
       RH   -   Relative humidity
       AG   -   Air gap (feet)
       VI   -   Visibility (nautical miles)

       ** NOTE **
       A variable that has its data fields filled with "9"s, indicates that
       data was not collected for that sample period.
       **********


STATION NAME: Kiptopeke (8632200)
****************************************************************************************************
    CD       T    TZ    PW     OW    WS   WD   WG    AT    WT    AP    SA    SG     RH    AG   VI
****************************************************************************************************
2019/08/18 23:30 EDT    2.83   3.27    5  145    6 -99.9  80.6 -999.9 -9.9 -9.999 -99.9 -99.99 -9.99
2019/08/18 23:36 EDT    2.83   3.27    6  148    6 -99.9  80.6 -999.9 -9.9 -9.999 -99.9 -99.99 -9.99
2019/08/18 23:42 EDT    2.82   3.27    6  159    7 -99.9  80.6 -999.9 -9.9 -9.999 -99.9 -99.99 -9.99
2019/08/18 23:48 EDT    2.81   3.28    6  163    7 -99.9  80.4 -999.9 -9.9 -9.999 -99.9 -99.99 -9.99
2019/08/18 23:54 EDT    2.80   3.26    5  164    6 -99.9  80.4 -999.9 -9.9 -9.999 -99.9 -99.99 -9.99
2019/08/19 00:00 EDT    2.78   3.24    6  149    7 -99.9  80.2 -999.9 -9.9 -9.999 -99.9 -99.99 -9.99
2019/08/19 00:06 EDT    2.77   3.22    6  173    7 -99.9  80.2 -999.9 -9.9 -9.999 -99.9 -99.99 -9.99
2019/08/19 00:12 EDT    2.75   3.20    8  175   10 -99.9  80.1 -999.9 -9.9 -9.999 -99.9 -99.99 -9.99
2019/08/19 00:18 EDT    2.72   3.19   10  176   11 -99.9  79.9 -999.9 -9.9 -9.999 -99.9 -99.99 -9.99
2019/08/19 00:24 EDT    2.70   3.17    9  176   10 -99.9  79.7 -999.9 -9.9 -9.999 -99.9 -99.99 -9.99
2019/08/19 00:30 EDT    2.67   3.15    8  170   10 -99.9  79.5 -999.9 -9.9 -9.999 -99.9 -99.99 -9.99
2019/08/19 00:36 EDT    2.64   3.11    6  162    9 -99.9  79.3 -999.9 -9.9 -9.999 -99.9 -99.99 -9.99
2019/08/19 00:42 EDT    2.60   3.10    6  160    7 -99.9  79.2 -999.9 -9.9 -9.999 -99.9 -99.99 -9.99
2019/08/19 00:48 EDT    2.57   3.05    7  175    8 -99.9  79.0 -999.9 -9.9 -9.999 -99.9 -99.99 -9.99
2019/08/19 00:54 EDT    2.53   3.02    9  180   10 -99.9  79.0 -999.9 -9.9 -9.999 -99.9 -99.99 -9.99
2019/08/19 01:00 EDT    2.49   2.95    9  174    9 -99.9  79.0 -999.9 -9.9 -9.999 -99.9 -99.99 -9.99
2019/08/19 01:06 EDT    2.44   2.90    9  173   10 -99.9  79.0 -999.9 -9.9 -9.999 -99.9 -99.99 -9.99
2019/08/19 01:12 EDT    2.40   2.87    7  175    9 -99.9  78.8 -999.9 -9.9 -9.999 -99.9 -99.99 -9.99
2019/08/19 01:18 EDT    2.35   2.83    8  171    8 -99.9  78.6 -999.9 -9.9 -9.999 -99.9 -99.99 -9.99
2019/08/19 01:24 EDT    2.30   2.79    4  142    8 -99.9  78.6 -999.9 -9.9 -9.999 -99.9 -99.99 -9.99
2019/08/19 01:30 EDT    2.25   2.74    5  139    6 -99.9  78.8 -999.9 -9.9 -9.999 -99.9 -99.99 -9.99
2019/08/19 01:36 EDT    2.20   2.65    5  148    6 -99.9  78.8 -999.9 -9.9 -9.999 -99.9 -99.99 -9.99
2019/08/19 01:42 EDT    2.14   2.61    5  144    7 -99.9  79.0 -999.9 -9.9 -9.999 -99.9 -99.99 -9.99
2019/08/19 01:48 EDT    2.09   2.56    6  148    6 -99.9  78.8 -999.9 -9.9 -9.999 -99.9 -99.99 -9.99
2019/08/19 01:54 EDT    2.03   2.52    7  152    7 -99.9  78.8 -999.9 -9.9 -9.999 -99.9 -99.99 -9.99
2019/08/19 02:00 EDT    1.97   2.47    6  156    7 -99.9  78.6 -999.9 -9.9 -9.999 -99.9 -99.99 -9.99
2019/08/19 02:06 EDT    1.91   2.38    6  149    7 -99.9  78.6 -999.9 -9.9 -9.999 -99.9 -99.99 -9.99
2019/08/19 02:12 EDT    1.84   2.33    6  151    7 -99.9  78.6 -999.9 -9.9 -9.999 -99.9 -99.99 -9.99
2019/08/19 02:18 EDT    1.78   2.24    5  149    6 -99.9  78.6 -999.9 -9.9 -9.999 -99.9 -99.99 -9.99
2019/08/19 02:24 EDT    1.72   2.19    5  152    6 -99.9  78.4 -999.9 -9.9 -9.999 -99.9 -99.99 -9.99
2019/08/19 02:30 EDT    1.65   2.12    5  164    7 -99.9  78.6 -999.9 -9.9 -9.999 -99.9 -99.99 -9.99
2019/08/19 02:36 EDT    1.59   2.04    6  166    7 -99.9  78.6 -999.9 -9.9 -9.999 -99.9 -99.99 -9.99
2019/08/19 02:42 EDT    1.52   1.98    5  147    7 -99.9  78.6 -999.9 -9.9 -9.999 -99.9 -99.99 -9.99
2019/08/19 02:48 EDT    1.45   1.89    6  150    7 -99.9  78.8 -999.9 -9.9 -9.999 -99.9 -99.99 -9.99
2019/08/19 02:54 EDT    1.39   1.82    6  153    7 -99.9  78.6 -999.9 -9.9 -9.999 -99.9 -99.99 -9.99
2019/08/19 03:00 EDT    1.32   1.77    4  154    7 -99.9  78.4 -999.9 -9.9 -9.999 -99.9 -99.99 -9.99
2019/08/19 03:06 EDT    1.26   1.72    3  153    5 -99.9  78.4 -999.9 -9.9 -9.999 -99.9 -99.99 -9.99
2019/08/19 03:12 EDT    1.19   1.67    4  134    5 -99.9  78.3 -999.9 -9.9 -9.999 -99.9 -99.99 -9.99
2019/08/19 03:18 EDT    1.13   1.61    5  151    5 -99.9  78.4 -999.9 -9.9 -9.999 -99.9 -99.99 -9.99
2019/08/19 03:24 EDT    1.07   1.52    5  148    5 -99.9  78.4 -999.9 -9.9 -9.999 -99.9 -99.99 -9.99
2019/08/19 03:30 EDT    1.01   1.45    6  151    6 -99.9  78.6 -999.9 -9.9 -9.999 -99.9 -99.99 -9.99
2019/08/19 03:36 EDT    0.95   1.44    6  166    7 -99.9  78.4 -999.9 -9.9 -9.999 -99.9 -99.99 -9.99
2019/08/19 03:42 EDT    0.89   1.40    7  168    7 -99.9  78.3 -999.9 -9.9 -9.999 -99.9 -99.99 -9.99
2019/08/19 03:48 EDT    0.84   1.35    8  174    9 -99.9  78.3 -999.9 -9.9 -9.999 -99.9 -99.99 -9.99
2019/08/19 03:54 EDT    0.78   1.28    8  174    9 -99.9  78.3 -999.9 -9.9 -9.999 -99.9 -99.99 -9.99
2019/08/19 04:00 EDT    0.73   1.25    7  179    9 -99.9  78.3 -999.9 -9.9 -9.999 -99.9 -99.99 -9.99
2019/08/19 04:06 EDT    0.68   1.20    6  181    7 -99.9  78.4 -999.9 -9.9 -9.999 -99.9 -99.99 -9.99
2019/08/19 04:12 EDT    0.64   1.18    6  184    7 -99.9  78.3 -999.9 -9.9 -9.999 -99.9 -99.99 -9.99
2019/08/19 04:18 EDT    0.59   1.15    5  181    7 -99.9  78.3 -999.9 -9.9 -9.999 -99.9 -99.99 -9.99
2019/08/19 04:24 EDT    0.55   1.12    5  195    6 -99.9  78.3 -999.9 -9.9 -9.999 -99.9 -99.99 -9.99
2019/08/19 04:30 EDT    0.52   1.08    5  195    6 -99.9  78.3 -999.9 -9.9 -9.999 -99.9 -99.99 -9.99
2019/08/19 04:36 EDT    0.48   1.07    4  191    5 -99.9  78.3 -999.9 -9.9 -9.999 -99.9 -99.99 -9.99
2019/08/19 04:42 EDT    0.45   1.02    4  196    5 -99.9  78.3 -999.9 -9.9 -9.999 -99.9 -99.99 -9.99
2019/08/19 04:48 EDT    0.42   0.99    3  214    5 -99.9  78.3 -999.9 -9.9 -9.999 -99.9 -99.99 -9.99
2019/08/19 04:54 EDT    0.40   0.98    3  206    4 -99.9  78.3 -999.9 -9.9 -9.999 -99.9 -99.99 -9.99
2019/08/19 05:00 EDT    0.38   0.94    2  219    3 -99.9  78.3 -999.9 -9.9 -9.999 -99.9 -99.99 -9.99
2019/08/19 05:06 EDT    0.36   0.93    3  223    3 -99.9  78.3 -999.9 -9.9 -9.999 -99.9 -99.99 -9.99
2019/08/19 05:12 EDT    0.35   0.91    3  205    4 -99.9  78.4 -999.9 -9.9 -9.999 -99.9 -99.99 -9.99
2019/08/19 05:18 EDT    0.33   0.90    3  214    4 -99.9  78.6 -999.9 -9.9 -9.999 -99.9 -99.99 -9.99
2019/08/19 05:24 EDT    0.33   0.89    3  215    4 -99.9  78.6 -999.9 -9.9 -9.999 -99.9 -99.99 -9.99
2019/08/19 05:30 EDT    0.32   0.88    3  234    3 -99.9  78.6 -999.9 -9.9 -9.999 -99.9 -99.99 -9.99
2019/08/19 05:36 EDT    0.32   0.88    2  215    3 -99.9  78.8 -999.9 -9.9 -9.999 -99.9 -99.99 -9.99
2019/08/19 05:42 EDT    0.32   0.88    3  214    3 -99.9  78.8 -999.9 -9.9 -9.999 -99.9 -99.99 -9.99
2019/08/19 05:48 EDT    0.32   0.88    3  206    4 -99.9  78.8 -999.9 -9.9 -9.999 -99.9 -99.99 -9.99
2019/08/19 05:54 EDT    0.33   0.90    3  198    4 -99.9  78.8 -999.9 -9.9 -9.999 -99.9 -99.99 -9.99
2019/08/19 06:00 EDT    0.34   0.89    3  193    4 -99.9  78.8 -999.9 -9.9 -9.999 -99.9 -99.99 -9.99
2019/08/19 06:06 EDT    0.35   0.91    3  202    4 -99.9  78.8 -999.9 -9.9 -9.999 -99.9 -99.99 -9.99
2019/08/19 06:12 EDT    0.37   0.94    2  208    4 -99.9  78.8 -999.9 -9.9 -9.999 -99.9 -99.99 -9.99
2019/08/19 06:18 EDT    0.39   0.93 -999 -999 -999 -99.9 -99.9 -999.9 -9.9 -9.999 -99.9 -99.99 -9.99
2019/08/19 06:24 EDT    0.41   0.94    4  240    4 -99.9  78.8 -999.9 -9.9 -9.999 -99.9 -99.99 -9.99
2019/08/19 06:30 EDT    0.43   0.96    4  240    5 -99.9  78.8 -999.9 -9.9 -9.999 -99.9 -99.99 -9.99
2019/08/19 06:36 EDT    0.46   1.00    4  228    4 -99.9  78.8 -999.9 -9.9 -9.999 -99.9 -99.99 -9.99
2019/08/19 06:42 EDT    0.49   1.03    4  224    5 -99.9  78.8 -999.9 -9.9 -9.999 -99.9 -99.99 -9.99
2019/08/19 06:48 EDT    0.52   1.02    5  228    6 -99.9  78.8 -999.9 -9.9 -9.999 -99.9 -99.99 -9.99
2019/08/19 06:54 EDT    0.55   1.06    5  239    6 -99.9  78.8 -999.9 -9.9 -9.999 -99.9 -99.99 -9.99
2019/08/19 07:00 EDT    0.59   1.12    5  235    6 -99.9  78.8 -999.9 -9.9 -9.999 -99.9 -99.99 -9.99
2019/08/19 07:06 EDT    0.63   1.14    4  241    5 -99.9  78.8 -999.9 -9.9 -9.999 -99.9 -99.99 -9.99
2019/08/19 07:12 EDT    0.67   1.18    4  227    5 -99.9  78.8 -999.9 -9.9 -9.999 -99.9 -99.99 -9.99
2019/08/19 07:18 EDT    0.71   1.21    3  229    5 -99.9  78.8 -999.9 -9.9 -9.999 -99.9 -99.99 -9.99
2019/08/19 07:24 EDT    0.76   1.23    3  222    4 -99.9  78.8 -999.9 -9.9 -9.999 -99.9 -99.99 -9.99
2019/08/19 07:30 EDT    0.81   1.27    3  218    4 -99.9  79.0 -999.9 -9.9 -9.999 -99.9 -99.99 -9.99
2019/08/19 07:36 EDT    0.85   1.32    3  224    4 -99.9  79.0 -999.9 -9.9 -9.999 -99.9 -99.99 -9.99
2019/08/19 07:42 EDT    0.91   1.40    4  209    4 -99.9  79.0 -999.9 -9.9 -9.999 -99.9 -99.99 -9.99
2019/08/19 07:48 EDT    0.96   1.46    4  210    5 -99.9  79.2 -999.9 -9.9 -9.999 -99.9 -99.99 -9.99
2019/08/19 07:54 EDT    1.02   1.49    5  215    5 -99.9  79.2 -999.9 -9.9 -9.999 -99.9 -99.99 -9.99
2019/08/19 08:00 EDT    1.07   1.55    5  207    6 -99.9  79.2 -999.9 -9.9 -9.999 -99.9 -99.99 -9.99
2019/08/19 08:06 EDT    1.13   1.59    6  213    7 -99.9  79.2 -999.9 -9.9 -9.999 -99.9 -99.99 -9.99
2019/08/19 08:12 EDT    1.19   1.65    6  203    7 -99.9  79.2 -999.9 -9.9 -9.999 -99.9 -99.99 -9.99
2019/08/19 08:18 EDT    1.25   1.75    6  205    7 -99.9  79.3 -999.9 -9.9 -9.999 -99.9 -99.99 -9.99
2019/08/19 08:24 EDT    1.31   1.83    5  203    7 -99.9  79.3 -999.9 -9.9 -9.999 -99.9 -99.99 -9.99
2019/08/19 08:30 EDT    1.38   1.88    6  209    7 -99.9  79.3 -999.9 -9.9 -9.999 -99.9 -99.99 -9.99
2019/08/19 08:36 EDT    1.44   1.95    5  220    7 -99.9  79.3 -999.9 -9.9 -9.999 -99.9 -99.99 -9.99
2019/08/19 08:42 EDT    1.50   1.99    5  214    6 -99.9  79.3 -999.9 -9.9 -9.999 -99.9 -99.99 -9.99
2019/08/19 08:48 EDT    1.57   2.08    6  209    7 -99.9  79.3 -999.9 -9.9 -9.999 -99.9 -99.99 -9.99
2019/08/19 08:54 EDT    1.63   2.13    6  218    8 -99.9  79.3 -999.9 -9.9 -9.999 -99.9 -99.99 -9.99
2019/08/19 09:00 EDT    1.70   2.18    7  228    8 -99.9  79.3 -999.9 -9.9 -9.999 -99.9 -99.99 -9.99
2019/08/19 09:06 EDT    1.76   2.20    6  217    7 -99.9  79.3 -999.9 -9.9 -9.999 -99.9 -99.99 -9.99
2019/08/19 09:12 EDT    1.83   2.27    5  214    7 -99.9  79.3 -999.9 -9.9 -9.999 -99.9 -99.99 -9.99
2019/08/19 09:18 EDT    1.89   2.33    6  224    7 -99.9  79.3 -999.9 -9.9 -9.999 -99.9 -99.99 -9.99
2019/08/19 09:24 EDT    1.95   2.38    5  233    7 -99.9  79.3 -999.9 -9.9 -9.999 -99.9 -99.99 -9.99
2019/08/19 09:30 EDT    2.01   2.45    5  230    6 -99.9  79.3 -999.9 -9.9 -9.999 -99.9 -99.99 -9.99
2019/08/19 09:36 EDT    2.07   2.54    5  237    6 -99.9  79.2 -999.9 -9.9 -9.999 -99.9 -99.99 -9.99
2019/08/19 09:42 EDT    2.13   2.63    4  218    6 -99.9  79.2 -999.9 -9.9 -9.999 -99.9 -99.99 -9.99
2019/08/19 09:48 EDT    2.19   2.67    4  218    5 -99.9  79.3 -999.9 -9.9 -9.999 -99.9 -99.99 -9.99
2019/08/19 09:54 EDT    2.24   2.72    5  224    5 -99.9  79.3 -999.9 -9.9 -9.999 -99.9 -99.99 -9.99
2019/08/19 10:00 EDT    2.30   2.73    5  219    6 -99.9  79.3 -999.9 -9.9 -9.999 -99.9 -99.99 -9.99
2019/08/19 10:06 EDT    2.35   2.78    4  216    6 -99.9  79.3 -999.9 -9.9 -9.999 -99.9 -99.99 -9.99
2019/08/19 10:12 EDT    2.39   2.83    4  215    5 -99.9  79.3 -999.9 -9.9 -9.999 -99.9 -99.99 -9.99
2019/08/19 10:18 EDT    2.44   2.92    6  209    6 -99.9  79.5 -999.9 -9.9 -9.999 -99.9 -99.99 -9.99
2019/08/19 10:24 EDT    2.48   2.95    7  204    8 -99.9  79.5 -999.9 -9.9 -9.999 -99.9 -99.99 -9.99
2019/08/19 10:30 EDT    2.52   2.98    6  192    7 -99.9  79.7 -999.9 -9.9 -9.999 -99.9 -99.99 -9.99
2019/08/19 10:36 EDT    2.56   3.01    7  206    8 -99.9  79.9 -999.9 -9.9 -9.999 -99.9 -99.99 -9.99
2019/08/19 10:42 EDT    2.59   3.02    6  204    7 -99.9  79.9 -999.9 -9.9 -9.999 -99.9 -99.99 -9.99
2019/08/19 10:48 EDT    2.63   3.07    7  190    8 -99.9  79.9 -999.9 -9.9 -9.999 -99.9 -99.99 -9.99
2019/08/19 10:54 EDT    2.65   3.10    7  191    8 -99.9  80.1 -999.9 -9.9 -9.999 -99.9 -99.99 -9.99
2019/08/19 11:00 EDT    2.68   3.14    7  201    8 -99.9  80.2 -999.9 -9.9 -9.999 -99.9 -99.99 -9.99
2019/08/19 11:06 EDT    2.70   3.15    5  190    7 -99.9  80.4 -999.9 -9.9 -9.999 -99.9 -99.99 -9.99
2019/08/19 11:12 EDT    2.72   3.15    4  203    6 -99.9  80.4 -999.9 -9.9 -9.999 -99.9 -99.99 -9.99
2019/08/19 11:18 EDT    2.73   3.18    4  192    5 -99.9  80.6 -999.9 -9.9 -9.999 -99.9 -99.99 -9.99
2019/08/19 11:24 EDT    2.75   3.19    4  189    5 -99.9  80.8 -999.9 -9.9 -9.999 -99.9 -99.99 -9.99
2019/08/19 11:30 EDT    2.76   3.21    5  181    6 -99.9  80.8 -999.9 -9.9 -9.999 -99.9 -99.99 -9.99
2019/08/19 11:36 EDT    2.76   3.22    4  182    5 -99.9  81.0 -999.9 -9.9 -9.999 -99.9 -99.99 -9.99
2019/08/19 11:42 EDT    2.77   3.21    4  180    5 -99.9  81.0 -999.9 -9.9 -9.999 -99.9 -99.99 -9.99
2019/08/19 11:48 EDT    2.77   3.22    4  175    4 -99.9  81.1 -999.9 -9.9 -9.999 -99.9 -99.99 -9.99
2019/08/19 11:54 EDT    2.77   3.21    5  177    6 -99.9  81.1 -999.9 -9.9 -9.999 -99.9 -99.99 -9.99
2019/08/19 12:00 EDT    2.76   3.23    5  181    6 -99.9  81.3 -999.9 -9.9 -9.999 -99.9 -99.99 -9.99
2019/08/19 12:06 EDT    2.75   3.24    5  197    6 -99.9  81.3 -999.9 -9.9 -9.999 -99.9 -99.99 -9.99
2019/08/19 12:12 EDT    2.74   3.21    5  208    6 -99.9  81.3 -999.9 -9.9 -9.999 -99.9 -99.99 -9.99
2019/08/19 12:18 EDT    2.73   3.18    6  193    6 -99.9  81.3 -999.9 -9.9 -9.999 -99.9 -99.99 -9.99
2019/08/19 12:24 EDT    2.71   3.15    6  182    6 -99.9  81.3 -999.9 -9.9 -9.999 -99.9 -99.99 -9.99
2019/08/19 12:30 EDT    2.70   3.14    7  181    7 -99.9  81.5 -999.9 -9.9 -9.999 -99.9 -99.99 -9.99
2019/08/19 12:36 EDT    2.68   3.14    7  185    7 -99.9  81.5 -999.9 -9.9 -9.999 -99.9 -99.99 -9.99
2019/08/19 12:42 EDT    2.65   3.12    6  188    7 -99.9  81.5 -999.9 -9.9 -9.999 -99.9 -99.99 -9.99
2019/08/19 12:48 EDT    2.63   3.08    6  190    6 -99.9  81.7 -999.9 -9.9 -9.999 -99.9 -99.99 -9.99
2019/08/19 12:54 EDT    2.60   3.04    6  192    7 -99.9  81.7 -999.9 -9.9 -9.999 -99.9 -99.99 -9.99
2019/08/19 13:00 EDT    2.57   3.04    7  192    7 -99.9  81.7 -999.9 -9.9 -9.999 -99.9 -99.99 -9.99
2019/08/19 13:06 EDT    2.54   3.02    7  188    7 -99.9  81.5 -999.9 -9.9 -9.999 -99.9 -99.99 -9.99
2019/08/19 13:12 EDT    2.51   3.00    6  190    7 -99.9  81.1 -999.9 -9.9 -9.999 -99.9 -99.99 -9.99
2019/08/19 13:18 EDT    2.47   2.97    7  191    8 -99.9  81.3 -999.9 -9.9 -9.999 -99.9 -99.99 -9.99
2019/08/19 13:24 EDT    2.44   2.93    8  184    9 -99.9  82.0 -999.9 -9.9 -9.999 -99.9 -99.99 -9.99
2019/08/19 13:30 EDT    2.40   2.90    7  183    8 -99.9  82.2 -999.9 -9.9 -9.999 -99.9 -99.99 -9.99
2019/08/19 13:36 EDT    2.35   2.86    6  191    7 -99.9  82.4 -999.9 -9.9 -9.999 -99.9 -99.99 -9.99
2019/08/19 13:42 EDT    2.31   2.82    6  195    7 -99.9  82.6 -999.9 -9.9 -9.999 -99.9 -99.99 -9.99
2019/08/19 13:48 EDT    2.27   2.76    8  184   10 -99.9  82.8 -999.9 -9.9 -9.999 -99.9 -99.99 -9.99
2019/08/19 13:54 EDT    2.22   2.71   11  181   13 -99.9  82.8 -999.9 -9.9 -9.999 -99.9 -99.99 -9.99
2019/08/19 14:00 EDT    2.17   2.68   11  181   12 -99.9  82.9 -999.9 -9.9 -9.999 -99.9 -99.99 -9.99
2019/08/19 14:06 EDT    2.12   2.63   13  181   14 -99.9  83.1 -999.9 -9.9 -9.999 -99.9 -99.99 -9.99
2019/08/19 14:12 EDT    2.07   2.59   11  179   13 -99.9  82.6 -999.9 -9.9 -9.999 -99.9 -99.99 -9.99
2019/08/19 14:18 EDT    2.02   2.55   12  180   13 -99.9  81.3 -999.9 -9.9 -9.999 -99.9 -99.99 -9.99
2019/08/19 14:24 EDT    1.96   2.50   13  180   14 -99.9  80.8 -999.9 -9.9 -9.999 -99.9 -99.99 -9.99
2019/08/19 14:30 EDT    1.91   2.44   13  178   15 -99.9  80.8 -999.9 -9.9 -9.999 -99.9 -99.99 -9.99
2019/08/19 14:36 EDT    1.85   2.33   12  179   14 -99.9  81.0 -999.9 -9.9 -9.999 -99.9 -99.99 -9.99
2019/08/19 14:42 EDT    1.79   2.26   13  179   15 -99.9  81.0 -999.9 -9.9 -9.999 -99.9 -99.99 -9.99
2019/08/19 14:48 EDT    1.73   2.19   13  177   14 -99.9  80.8 -999.9 -9.9 -9.999 -99.9 -99.99 -9.99
2019/08/19 14:54 EDT    1.68   2.14   10  176   14 -99.9  80.8 -999.9 -9.9 -9.999 -99.9 -99.99 -9.99
2019/08/19 15:00 EDT    1.62   2.07   11  177   12 -99.9  80.8 -999.9 -9.9 -9.999 -99.9 -99.99 -9.99
2019/08/19 15:06 EDT    1.56   2.01   10  177   11 -99.9  80.8 -999.9 -9.9 -9.999 -99.9 -99.99 -9.99
2019/08/19 15:12 EDT    1.50   1.93   11  179   11 -99.9  81.0 -999.9 -9.9 -9.999 -99.9 -99.99 -9.99
2019/08/19 15:18 EDT    1.44   1.89   10  180   11 -99.9  80.8 -999.9 -9.9 -9.999 -99.9 -99.99 -9.99
2019/08/19 15:24 EDT    1.38   1.84   11  182   12 -99.9  80.6 -999.9 -9.9 -9.999 -99.9 -99.99 -9.99
2019/08/19 15:30 EDT    1.32   1.77   12  179   14 -99.9  80.8 -999.9 -9.9 -9.999 -99.9 -99.99 -9.99
2019/08/19 15:36 EDT    1.26   1.68   11  180   12 -99.9  81.0 -999.9 -9.9 -9.999 -99.9 -99.99 -9.99
2019/08/19 15:42 EDT    1.21   1.62   10  178   12 -99.9  80.8 -999.9 -9.9 -9.999 -99.9 -99.99 -9.99
2019/08/19 15:48 EDT    1.15   1.56   10  176   11 -99.9  80.8 -999.9 -9.9 -9.999 -99.9 -99.99 -9.99
2019/08/19 15:54 EDT    1.10   1.53    9  176   11 -99.9  80.8 -999.9 -9.9 -9.999 -99.9 -99.99 -9.99
2019/08/19 16:00 EDT    1.04   1.50   10  167   11 -99.9  80.6 -999.9 -9.9 -9.999 -99.9 -99.99 -9.99
2019/08/19 16:06 EDT    0.99   1.44   11  158   12 -99.9  80.6 -999.9 -9.9 -9.999 -99.9 -99.99 -9.99
2019/08/19 16:12 EDT    0.94   1.36   11  164   13 -99.9  80.8 -999.9 -9.9 -9.999 -99.9 -99.99 -9.99
2019/08/19 16:18 EDT    0.89   1.31   10  165   13 -99.9  80.8 -999.9 -9.9 -9.999 -99.9 -99.99 -9.99
2019/08/19 16:24 EDT    0.85   1.28   11  161   13 -99.9  80.6 -999.9 -9.9 -9.999 -99.9 -99.99 -9.99
2019/08/19 16:30 EDT    0.81   1.26   11  164   13 -99.9  80.4 -999.9 -9.9 -9.999 -99.9 -99.99 -9.99
2019/08/19 16:36 EDT    0.76   1.22   12  165   13 -99.9  80.4 -999.9 -9.9 -9.999 -99.9 -99.99 -9.99
2019/08/19 16:42 EDT    0.73   1.16   13  159   15 -99.9  80.2 -999.9 -9.9 -9.999 -99.9 -99.99 -9.99
2019/08/19 16:48 EDT    0.69   1.13   12  162   15 -99.9  80.2 -999.9 -9.9 -9.999 -99.9 -99.99 -9.99
2019/08/19 16:54 EDT    0.66   1.11   13  165   15 -99.9  80.4 -999.9 -9.9 -9.999 -99.9 -99.99 -9.99
2019/08/19 17:00 EDT    0.63   1.10   13  164   16 -99.9  80.4 -999.9 -9.9 -9.999 -99.9 -99.99 -9.99
2019/08/19 17:06 EDT    0.60   1.05   11  164   15 -99.9  80.6 -999.9 -9.9 -9.999 -99.9 -99.99 -9.99
2019/08/19 17:12 EDT    0.58   1.03   14  162   16 -99.9  81.3 -999.9 -9.9 -9.999 -99.9 -99.99 -9.99
2019/08/19 17:18 EDT    0.55   1.02   14  164   17 -99.9  81.9 -999.9 -9.9 -9.999 -99.9 -99.99 -9.99
2019/08/19 17:24 EDT    0.54   0.99   12  167   16 -99.9  82.8 -999.9 -9.9 -9.999 -99.9 -99.99 -9.99
2019/08/19 17:30 EDT    0.52   0.97   15  170   16 -99.9  82.8 -999.9 -9.9 -9.999 -99.9 -99.99 -9.99
2019/08/19 17:36 EDT    0.51   0.97   15  173   17 -99.9  83.1 -999.9 -9.9 -9.999 -99.9 -99.99 -9.99
2019/08/19 17:42 EDT    0.50   0.96   14  171   16 -99.9  83.7 -999.9 -9.9 -9.999 -99.9 -99.99 -9.99
2019/08/19 17:48 EDT    0.49   0.94   16  175   18 -99.9  83.7 -999.9 -9.9 -9.999 -99.9 -99.99 -9.99
2019/08/19 17:54 EDT    0.49   0.93   15  171   18 -99.9  83.8 -999.9 -9.9 -9.999 -99.9 -99.99 -9.99
2019/08/19 18:00 EDT    0.49   0.93   13  177   17 -99.9  83.8 -999.9 -9.9 -9.999 -99.9 -99.99 -9.99
2019/08/19 18:06 EDT    0.49   0.92   12  173   15 -99.9  83.8 -999.9 -9.9 -9.999 -99.9 -99.99 -9.99
2019/08/19 18:12 EDT    0.49   0.91   12  171   15 -99.9  83.7 -999.9 -9.9 -9.999 -99.9 -99.99 -9.99
2019/08/19 18:18 EDT    0.50   0.92   12  171   16 -99.9  83.7 -999.9 -9.9 -9.999 -99.9 -99.99 -9.99
2019/08/19 18:24 EDT    0.51   0.98   14  173   15 -99.9  83.5 -999.9 -9.9 -9.999 -99.9 -99.99 -9.99
2019/08/19 18:30 EDT    0.52   0.98   14  171   16 -99.9  83.3 -999.9 -9.9 -9.999 -99.9 -99.99 -9.99
2019/08/19 18:36 EDT    0.54   1.00   14  172   16 -99.9  83.1 -999.9 -9.9 -9.999 -99.9 -99.99 -9.99
2019/08/19 18:42 EDT    0.55   1.04   14  174   16 -99.9  83.1 -999.9 -9.9 -9.999 -99.9 -99.99 -9.99
2019/08/19 18:48 EDT    0.57   1.07   14  173   17 -99.9  82.9 -999.9 -9.9 -9.999 -99.9 -99.99 -9.99
2019/08/19 18:54 EDT    0.60   1.09   14  172   17 -99.9  82.9 -999.9 -9.9 -9.999 -99.9 -99.99 -9.99
2019/08/19 19:00 EDT    0.62   1.11   16  176   18 -99.9  82.9 -999.9 -9.9 -9.999 -99.9 -99.99 -9.99
2019/08/19 19:06 EDT    0.65   1.14   13  172   18 -99.9  82.9 -999.9 -9.9 -9.999 -99.9 -99.99 -9.99
2019/08/19 19:12 EDT    0.68   1.14   15  174   17 -99.9  82.9 -999.9 -9.9 -9.999 -99.9 -99.99 -9.99
2019/08/19 19:18 EDT    0.71   1.17   14  171   17 -99.9  82.9 -999.9 -9.9 -9.999 -99.9 -99.99 -9.99
2019/08/19 19:24 EDT    0.74   1.19   13  171   17 -99.9  83.1 -999.9 -9.9 -9.999 -99.9 -99.99 -9.99
2019/08/19 19:30 EDT    0.78   1.20   14  167   16 -99.9  83.1 -999.9 -9.9 -9.999 -99.9 -99.99 -9.99
2019/08/19 19:36 EDT    0.82   1.22   15  167   18 -99.9  83.1 -999.9 -9.9 -9.999 -99.9 -99.99 -9.99
2019/08/19 19:42 EDT    0.86   1.24   16  167   17 -99.9  83.1 -999.9 -9.9 -9.999 -99.9 -99.99 -9.99
2019/08/19 19:48 EDT    0.90   1.31   14  171   16 -99.9  83.1 -999.9 -9.9 -9.999 -99.9 -99.99 -9.99
2019/08/19 19:54 EDT    0.94   1.37   14  172   17 -99.9  83.3 -999.9 -9.9 -9.999 -99.9 -99.99 -9.99
2019/08/19 20:00 EDT    0.99   1.43   14  169   17 -99.9  83.1 -999.9 -9.9 -9.999 -99.9 -99.99 -9.99
2019/08/19 20:06 EDT    1.04   1.48   13  165   16 -99.9  83.3 -999.9 -9.9 -9.999 -99.9 -99.99 -9.99
2019/08/19 20:12 EDT    1.09   1.52   14  169   15 -99.9  83.3 -999.9 -9.9 -9.999 -99.9 -99.99 -9.99
2019/08/19 20:18 EDT    1.14   1.59   13  168   16 -99.9  83.3 -999.9 -9.9 -9.999 -99.9 -99.99 -9.99
2019/08/19 20:24 EDT    1.19   1.64   13  168   16 -99.9  83.3 -999.9 -9.9 -9.999 -99.9 -99.99 -9.99
2019/08/19 20:30 EDT    1.25   1.68   14  172   16 -99.9  82.9 -999.9 -9.9 -9.999 -99.9 -99.99 -9.99
2019/08/19 20:36 EDT    1.30   1.72   14  175   16 -99.9  82.8 -999.9 -9.9 -9.999 -99.9 -99.99 -9.99
2019/08/19 20:42 EDT    1.36   1.82   14  174   17 -99.9  81.9 -999.9 -9.9 -9.999 -99.9 -99.99 -9.99
2019/08/19 20:48 EDT    1.42   1.84   13  174   15 -99.9  81.5 -999.9 -9.9 -9.999 -99.9 -99.99 -9.99
2019/08/19 20:54 EDT    1.47   1.88   12  178   14 -99.9  82.0 -999.9 -9.9 -9.999 -99.9 -99.99 -9.99
2019/08/19 21:00 EDT    1.53   1.94   11  176   13 -99.9  81.5 -999.9 -9.9 -9.999 -99.9 -99.99 -9.99
2019/08/19 21:06 EDT    1.59   1.96   12  179   14 -99.9  81.7 -999.9 -9.9 -9.999 -99.9 -99.99 -9.99
2019/08/19 21:12 EDT    1.65   2.00   12  178   14 -99.9  81.5 -999.9 -9.9 -9.999 -99.9 -99.99 -9.99
2019/08/19 21:18 EDT    1.71   2.07   11  176   14 -99.9  81.3 -999.9 -9.9 -9.999 -99.9 -99.99 -9.99
2019/08/19 21:24 EDT    1.77   2.11   11  181   13 -99.9  81.7 -999.9 -9.9 -9.999 -99.9 -99.99 -9.99
2019/08/19 21:30 EDT    1.83   2.18   10  184   12 -99.9  81.3 -999.9 -9.9 -9.999 -99.9 -99.99 -9.99
2019/08/19 21:36 EDT    1.89   2.27    9  182   11 -99.9  80.8 -999.9 -9.9 -9.999 -99.9 -99.99 -9.99
2019/08/19 21:42 EDT    1.95   2.36    9  183   10 -99.9  81.3 -999.9 -9.9 -9.999 -99.9 -99.99 -9.99
2019/08/19 21:48 EDT    2.01   2.43    8  185   10 -99.9  81.5 -999.9 -9.9 -9.999 -99.9 -99.99 -9.99
2019/08/19 21:54 EDT    2.07   2.46    9  187   10 -99.9  81.5 -999.9 -9.9 -9.999 -99.9 -99.99 -9.99
2019/08/19 22:00 EDT    2.12   2.49    9  190   11 -99.9  81.5 -999.9 -9.9 -9.999 -99.9 -99.99 -9.99
2019/08/19 22:06 EDT    2.18   2.53    9  188   10 -99.9  81.5 -999.9 -9.9 -9.999 -99.9 -99.99 -9.99
2019/08/19 22:12 EDT    2.23   2.60    9  193   10 -99.9  81.9 -999.9 -9.9 -9.999 -99.9 -99.99 -9.99
2019/08/19 22:18 EDT    2.28   2.64    9  192   11 -99.9  82.0 -999.9 -9.9 -9.999 -99.9 -99.99 -9.99
2019/08/19 22:24 EDT    2.33   2.67    8  190   10 -99.9  82.2 -999.9 -9.9 -9.999 -99.9 -99.99 -9.99
2019/08/19 22:30 EDT    2.37   2.70    8  188    9 -99.9  82.4 -999.9 -9.9 -9.999 -99.9 -99.99 -9.99
2019/08/19 22:36 EDT    2.42   2.75    8  190   10 -99.9  82.6 -999.9 -9.9 -9.999 -99.9 -99.99 -9.99
2019/08/19 22:42 EDT    2.46   2.78    8  188   10 -99.9  82.6 -999.9 -9.9 -9.999 -99.9 -99.99 -9.99
2019/08/19 22:48 EDT    2.50   2.82    8  188    9 -99.9  82.8 -999.9 -9.9 -9.999 -99.9 -99.99 -9.99
2019/08/19 22:54 EDT    2.53 -99.99 -999 -999 -999 -99.9 -99.9 -999.9 -9.9 -9.999 -99.9 -99.99 -9.99
2019/08/19 23:00 EDT    2.56 -99.99 -999 -999 -999 -99.9 -99.9 -999.9 -9.9 -9.999 -99.9 -99.99 -9.99
2019/08/19 23:06 EDT    2.59   2.97 -999 -999 -999 -99.9 -99.9 -999.9 -9.9 -9.999 -99.9 -99.99 -9.99
2019/08/19 23:12 EDT    2.62   3.00    8  200   10 -99.9  82.8 -999.9 -9.9 -9.999 -99.9 -99.99 -9.99
2019/08/19 23:18 EDT    2.64   3.02    7  200    9 -99.9  82.8 -999.9 -9.9 -9.999 -99.9 -99.99 -9.99
2019/08/19 23:24 EDT    2.67   3.03    7  195    8 -99.9  82.8 -999.9 -9.9 -9.999 -99.9 -99.99 -9.99
2019/08/19 23:30 EDT    2.68   3.06    6  200    8 -99.9  82.8 -999.9 -9.9 -9.999 -99.9 -99.99 -9.99
2019/08/19 23:36 EDT    2.70   3.08    6  203    8 -99.9  82.6 -999.9 -9.9 -9.999 -99.9 -99.99 -9.99
2019/08/19 23:42 EDT    2.71   3.07    6  197    8 -99.9  82.6 -999.9 -9.9 -9.999 -99.9 -99.99 -9.99
2019/08/19 23:48 EDT    2.72   3.07    6  196    8 -99.9  82.4 -999.9 -9.9 -9.999 -99.9 -99.99 -9.99
2019/08/19 23:54 EDT    2.72   3.09    6  201    7 -99.9  82.4 -999.9 -9.9 -9.999 -99.9 -99.99 -9.99
2019/08/20 00:00 EDT    2.72   3.09    6  206    8 -99.9  82.4 -999.9 -9.9 -9.999 -99.9 -99.99 -9.99
2019/08/20 00:06 EDT    2.72   3.07    7  208    8 -99.9  82.2 -999.9 -9.9 -9.999 -99.9 -99.99 -9.99
2019/08/20 00:12 EDT    2.72   3.06    7  203    7 -99.9  82.2 -999.9 -9.9 -9.999 -99.9 -99.99 -9.99
2019/08/20 00:18 EDT    2.71   3.05    6  212    7 -99.9  82.2 -999.9 -9.9 -9.999 -99.9 -99.99 -9.99
2019/08/20 00:24 EDT    2.70   3.05    7  226    8 -99.9  82.0 -999.9 -9.9 -9.999 -99.9 -99.99 -9.99
2019/08/20 00:30 EDT    2.69   3.06   10  235   11 -99.9  82.0 -999.9 -9.9 -9.999 -99.9 -99.99 -9.99
2019/08/20 00:36 EDT    2.68   3.06   10  241   12 -99.9  82.0 -999.9 -9.9 -9.999 -99.9 -99.99 -9.99
2019/08/20 00:42 EDT    2.66   3.01   12  239   14 -99.9  82.0 -999.9 -9.9 -9.999 -99.9 -99.99 -9.99
2019/08/20 00:48 EDT    2.64   2.99   10  239   12 -99.9  82.2 -999.9 -9.9 -9.999 -99.9 -99.99 -9.99
2019/08/20 00:54 EDT    2.61   2.97   11  238   13 -99.9  82.2 -999.9 -9.9 -9.999 -99.9 -99.99 -9.99
2019/08/20 01:00 EDT    2.59   2.99   11  240   14 -99.9  82.2 -999.9 -9.9 -9.999 -99.9 -99.99 -9.99
2019/08/20 01:06 EDT    2.56   2.96   11  248   14 -99.9  82.2 -999.9 -9.9 -9.999 -99.9 -99.99 -9.99
2019/08/20 01:12 EDT    2.53   2.94    9  248   12 -99.9  82.2 -999.9 -9.9 -9.999 -99.9 -99.99 -9.99
2019/08/20 01:18 EDT    2.50   2.90   11  245   12 -99.9  82.2 -999.9 -9.9 -9.999 -99.9 -99.99 -9.99
2019/08/20 01:24 EDT    2.47   2.86   10  251   12 -99.9  82.2 -999.9 -9.9 -9.999 -99.9 -99.99 -9.99
2019/08/20 01:30 EDT    2.43   2.81   10  251   11 -99.9  82.0 -999.9 -9.9 -9.999 -99.9 -99.99 -9.99
2019/08/20 01:36 EDT    2.39   2.79    9  257   12 -99.9  82.0 -999.9 -9.9 -9.999 -99.9 -99.99 -9.99
2019/08/20 01:42 EDT    2.35   2.73    9  254   11 -99.9  81.9 -999.9 -9.9 -9.999 -99.9 -99.99 -9.99
2019/08/20 01:48 EDT    2.31   2.68    9  263   11 -99.9  81.9 -999.9 -9.9 -9.999 -99.9 -99.99 -9.99
2019/08/20 01:54 EDT    2.27   2.65    8  262   10 -99.9  81.9 -999.9 -9.9 -9.999 -99.9 -99.99 -9.99
2019/08/20 02:00 EDT    2.22   2.61    8  258   11 -99.9  81.9 -999.9 -9.9 -9.999 -99.9 -99.99 -9.99
2019/08/20 02:06 EDT    2.17   2.59   10  247   11 -99.9  81.9 -999.9 -9.9 -9.999 -99.9 -99.99 -9.99
2019/08/20 02:12 EDT    2.12   2.57   11  247   14 -99.9  81.7 -999.9 -9.9 -9.999 -99.9 -99.99 -9.99
2019/08/20 02:18 EDT    2.07   2.47   12  247   16 -99.9  81.7 -999.9 -9.9 -9.999 -99.9 -99.99 -9.99
2019/08/20 02:24 EDT    2.02   2.43   12  240   16 -99.9  81.5 -999.9 -9.9 -9.999 -99.9 -99.99 -9.99
2019/08/20 02:30 EDT    1.96   2.34   10  244   15 -99.9  81.5 -999.9 -9.9 -9.999 -99.9 -99.99 -9.99
2019/08/20 02:36 EDT    1.91   2.30   12  250   15 -99.9  81.3 -999.9 -9.9 -9.999 -99.9 -99.99 -9.99
2019/08/20 02:42 EDT    1.85   2.21   13  257   15 -99.9  81.3 -999.9 -9.9 -9.999 -99.9 -99.99 -9.99
2019/08/20 02:48 EDT    1.79   2.15   12  251   15 -99.9  81.3 -999.9 -9.9 -9.999 -99.9 -99.99 -9.99
2019/08/20 02:54 EDT    1.74   2.07   11  255   13 -99.9  81.3 -999.9 -9.9 -9.999 -99.9 -99.99 -9.99
2019/08/20 03:00 EDT    1.68   2.02   11  256   13 -99.9  81.3 -999.9 -9.9 -9.999 -99.9 -99.99 -9.99
2019/08/20 03:06 EDT    1.62   1.92   10  265   13 -99.9  81.1 -999.9 -9.9 -9.999 -99.9 -99.99 -9.99
2019/08/20 03:12 EDT    1.55   1.83   10  261   12 -99.9  81.1 -999.9 -9.9 -9.999 -99.9 -99.99 -9.99
2019/08/20 03:18 EDT    1.49   1.79    8  260   11 -99.9  81.1 -999.9 -9.9 -9.999 -99.9 -99.99 -9.99
2019/08/20 03:24 EDT    1.43   1.71    9  267   10 -99.9  81.1 -999.9 -9.9 -9.999 -99.9 -99.99 -9.99
2019/08/20 03:30 EDT    1.37   1.64   10  254   11 -99.9  81.1 -999.9 -9.9 -9.999 -99.9 -99.99 -9.99
2019/08/20 03:36 EDT    1.31   1.58   10  240   12 -99.9  81.1 -999.9 -9.9 -9.999 -99.9 -99.99 -9.99
2019/08/20 03:42 EDT    1.25   1.50   13  235   14 -99.9  81.0 -999.9 -9.9 -9.999 -99.9 -99.99 -9.99
2019/08/20 03:48 EDT    1.19   1.46   11  237   14 -99.9  81.0 -999.9 -9.9 -9.999 -99.9 -99.99 -9.99
2019/08/20 03:54 EDT    1.13   1.44   11  244   15 -99.9  81.0 -999.9 -9.9 -9.999 -99.9 -99.99 -9.99
2019/08/20 04:00 EDT    1.07   1.40   14  242   17 -99.9  81.0 -999.9 -9.9 -9.999 -99.9 -99.99 -9.99
2019/08/20 04:06 EDT    1.01   1.35   12  242   16 -99.9  81.1 -999.9 -9.9 -9.999 -99.9 -99.99 -9.99
2019/08/20 04:12 EDT    0.95   1.28   13  259   16 -99.9  81.1 -999.9 -9.9 -9.999 -99.9 -99.99 -9.99
2019/08/20 04:18 EDT    0.90   1.20   11  253   16 -99.9  81.1 -999.9 -9.9 -9.999 -99.9 -99.99 -9.99
2019/08/20 04:24 EDT    0.85   1.14   10  253   13 -99.9  81.1 -999.9 -9.9 -9.999 -99.9 -99.99 -9.99
2019/08/20 04:30 EDT    0.80   1.11   10  258   12 -99.9  81.1 -999.9 -9.9 -9.999 -99.9 -99.99 -9.99
2019/08/20 04:36 EDT    0.75   1.07   11  266   13 -99.9  81.1 -999.9 -9.9 -9.999 -99.9 -99.99 -9.99
2019/08/20 04:42 EDT    0.70   1.01   12  263   14 -99.9  81.3 -999.9 -9.9 -9.999 -99.9 -99.99 -9.99
2019/08/20 04:48 EDT    0.66   0.95   10  258   13 -99.9  81.3 -999.9 -9.9 -9.999 -99.9 -99.99 -9.99
2019/08/20 04:54 EDT    0.62   0.90   12  261   13 -99.9  81.3 -999.9 -9.9 -9.999 -99.9 -99.99 -9.99
2019/08/20 05:00 EDT    0.58   0.86   11  260   12 -99.9  81.3 -999.9 -9.9 -9.999 -99.9 -99.99 -9.99
2019/08/20 05:06 EDT    0.54   0.83   10  267   13 -99.9  81.3 -999.9 -9.9 -9.999 -99.9 -99.99 -9.99
2019/08/20 05:12 EDT    0.51   0.79   11  269   13 -99.9  81.3 -999.9 -9.9 -9.999 -99.9 -99.99 -9.99
2019/08/20 05:18 EDT    0.48   0.76   10  272   12 -99.9  81.3 -999.9 -9.9 -9.999 -99.9 -99.99 -9.99
2019/08/20 05:24 EDT    0.45   0.75   11  260   12 -99.9  81.3 -999.9 -9.9 -9.999 -99.9 -99.99 -9.99
2019/08/20 05:30 EDT    0.43   0.68   10  262   14 -99.9  81.5 -999.9 -9.9 -9.999 -99.9 -99.99 -9.99
2019/08/20 05:36 EDT    0.41   0.64   10  274   12 -99.9  81.5 -999.9 -9.9 -9.999 -99.9 -99.99 -9.99
2019/08/20 05:42 EDT    0.39   0.67    8  272   10 -99.9  81.5 -999.9 -9.9 -9.999 -99.9 -99.99 -9.99
2019/08/20 05:48 EDT    0.38   0.67   10  281   12 -99.9  81.5 -999.9 -9.9 -9.999 -99.9 -99.99 -9.99
2019/08/20 05:54 EDT    0.37   0.64   10  291   11 -99.9  81.5 -999.9 -9.9 -9.999 -99.9 -99.99 -9.99
2019/08/20 06:00 EDT    0.36   0.63    9  283   12 -99.9  81.5 -999.9 -9.9 -9.999 -99.9 -99.99 -9.99
2019/08/20 06:06 EDT    0.36   0.63    9  286   10 -99.9  81.5 -999.9 -9.9 -9.999 -99.9 -99.99 -9.99
2019/08/20 06:12 EDT    0.36   0.60    9  279   10 -99.9  81.5 -999.9 -9.9 -9.999 -99.9 -99.99 -9.99
2019/08/20 06:18 EDT    0.36   0.62    9  278   11 -99.9  81.3 -999.9 -9.9 -9.999 -99.9 -99.99 -9.99
2019/08/20 06:24 EDT    0.36   0.65   10  281   12 -99.9  81.3 -999.9 -9.9 -9.999 -99.9 -99.99 -9.99
2019/08/20 06:30 EDT    0.37   0.68   10  275   12 -99.9  81.3 -999.9 -9.9 -9.999 -99.9 -99.99 -9.99
2019/08/20 06:36 EDT    0.38   0.67    9  274   11 -99.9  81.3 -999.9 -9.9 -9.999 -99.9 -99.99 -9.99
2019/08/20 06:42 EDT    0.40   0.64    8  279   10 -99.9  81.3 -999.9 -9.9 -9.999 -99.9 -99.99 -9.99
2019/08/20 06:48 EDT    0.41   0.68    9  269   11 -99.9  81.1 -999.9 -9.9 -9.999 -99.9 -99.99 -9.99
2019/08/20 06:54 EDT    0.43   0.71    9  272   12 -99.9  81.1 -999.9 -9.9 -9.999 -99.9 -99.99 -9.99
2019/08/20 07:00 EDT    0.46   0.77   11  267   12 -99.9  81.1 -999.9 -9.9 -9.999 -99.9 -99.99 -9.99
2019/08/20 07:06 EDT    0.48   0.76   11  268   13 -99.9  81.1 -999.9 -9.9 -9.999 -99.9 -99.99 -9.99
2019/08/20 07:12 EDT    0.51   0.79   10  262   12 -99.9  81.1 -999.9 -9.9 -9.999 -99.9 -99.99 -9.99
2019/08/20 07:18 EDT    0.54   0.79    9  253   11 -99.9  81.1 -999.9 -9.9 -9.999 -99.9 -99.99 -9.99
2019/08/20 07:24 EDT    0.57   0.81   10  263   11 -99.9  81.1 -999.9 -9.9 -9.999 -99.9 -99.99 -9.99
2019/08/20 07:30 EDT    0.60   0.88    9  259   11 -99.9  81.0 -999.9 -9.9 -9.999 -99.9 -99.99 -9.99
2019/08/20 07:36 EDT    0.64   0.91   10  260   12 -99.9  81.0 -999.9 -9.9 -9.999 -99.9 -99.99 -9.99
2019/08/20 07:42 EDT    0.68   0.96    9  266   11 -99.9  81.0 -999.9 -9.9 -9.999 -99.9 -99.99 -9.99
2019/08/20 07:48 EDT    0.72   1.00    8  261   11 -99.9  81.0 -999.9 -9.9 -9.999 -99.9 -99.99 -9.99
2019/08/20 07:54 EDT    0.76   1.01    8  257   11 -99.9  81.0 -999.9 -9.9 -9.999 -99.9 -99.99 -9.99
2019/08/20 08:00 EDT    0.81   1.04    9  260   11 -99.9  81.0 -999.9 -9.9 -9.999 -99.9 -99.99 -9.99
2019/08/20 08:06 EDT    0.86   1.06    9  263   12 -99.9  81.0 -999.9 -9.9 -9.999 -99.9 -99.99 -9.99
2019/08/20 08:12 EDT    0.90   1.11    9  274   10 -99.9  81.0 -999.9 -9.9 -9.999 -99.9 -99.99 -9.99
2019/08/20 08:18 EDT    0.95   1.17    7  267   11 -99.9  81.0 -999.9 -9.9 -9.999 -99.9 -99.99 -9.99
2019/08/20 08:24 EDT    1.01   1.26    8  267    9 -99.9  81.0 -999.9 -9.9 -9.999 -99.9 -99.99 -9.99
2019/08/20 08:30 EDT    1.06   1.31    7  270    9 -99.9  81.0 -999.9 -9.9 -9.999 -99.9 -99.99 -9.99
2019/08/20 08:36 EDT    1.12   1.35    7  272    9 -99.9  81.0 -999.9 -9.9 -9.999 -99.9 -99.99 -9.99
2019/08/20 08:42 EDT    1.17   1.42    8  276    9 -99.9  81.0 -999.9 -9.9 -9.999 -99.9 -99.99 -9.99
2019/08/20 08:48 EDT    1.23   1.50    7  274    9 -99.9  81.0 -999.9 -9.9 -9.999 -99.9 -99.99 -9.99
2019/08/20 08:54 EDT    1.29   1.58    8  281   10 -99.9  81.1 -999.9 -9.9 -9.999 -99.9 -99.99 -9.99
2019/08/20 09:00 EDT    1.35   1.64   10  285   11 -99.9  81.1 -999.9 -9.9 -9.999 -99.9 -99.99 -9.99
2019/08/20 09:06 EDT    1.41   1.67    9  284   10 -99.9  81.1 -999.9 -9.9 -9.999 -99.9 -99.99 -9.99
2019/08/20 09:12 EDT    1.47   1.71    7  284    9 -99.9  81.3 -999.9 -9.9 -9.999 -99.9 -99.99 -9.99
2019/08/20 09:18 EDT    1.53   1.79    8  284    9 -99.9  81.3 -999.9 -9.9 -9.999 -99.9 -99.99 -9.99
2019/08/20 09:24 EDT    1.59   1.87    7  286    9 -99.9  81.3 -999.9 -9.9 -9.999 -99.9 -99.99 -9.99
2019/08/20 09:30 EDT    1.66   1.91    7  292    8 -99.9  81.1 -999.9 -9.9 -9.999 -99.9 -99.99 -9.99
2019/08/20 09:36 EDT    1.72   1.94    7  296    9 -99.9  81.0 -999.9 -9.9 -9.999 -99.9 -99.99 -9.99
2019/08/20 09:42 EDT    1.78   2.00    6  288    8 -99.9  80.8 -999.9 -9.9 -9.999 -99.9 -99.99 -9.99
2019/08/20 09:48 EDT    1.84   2.11    6  300    7 -99.9  80.1 -999.9 -9.9 -9.999 -99.9 -99.99 -9.99
2019/08/20 09:54 EDT    1.91   2.20    6  286    7 -99.9  79.3 -999.9 -9.9 -9.999 -99.9 -99.99 -9.99
2019/08/20 10:00 EDT    1.97   2.24    4  290    7 -99.9  79.0 -999.9 -9.9 -9.999 -99.9 -99.99 -9.99
2019/08/20 10:06 EDT    2.03   2.28    4  281    6 -99.9  78.8 -999.9 -9.9 -9.999 -99.9 -99.99 -9.99
2019/08/20 10:12 EDT    2.08   2.34    5  267    6 -99.9  78.8 -999.9 -9.9 -9.999 -99.9 -99.99 -9.99
2019/08/20 10:18 EDT    2.14   2.40    5  285    6 -99.9  78.8 -999.9 -9.9 -9.999 -99.9 -99.99 -9.99
2019/08/20 10:24 EDT    2.20   2.50    5  292    6 -99.9  78.8 -999.9 -9.9 -9.999 -99.9 -99.99 -9.99
2019/08/20 10:30 EDT    2.25   2.53    5  291    6 -99.9  79.0 -999.9 -9.9 -9.999 -99.9 -99.99 -9.99
2019/08/20 10:36 EDT    2.30   2.56    4  290    6 -99.9  79.2 -999.9 -9.9 -9.999 -99.9 -99.99 -9.99
2019/08/20 10:42 EDT    2.35   2.61    4  280    6 -99.9  79.5 -999.9 -9.9 -9.999 -99.9 -99.99 -9.99
2019/08/20 10:48 EDT    2.40   2.67    4  282    5 -99.9  79.7 -999.9 -9.9 -9.999 -99.9 -99.99 -9.99
2019/08/20 10:54 EDT    2.45   2.72    5  286    6 -99.9  79.9 -999.9 -9.9 -9.999 -99.9 -99.99 -9.99
2019/08/20 11:00 EDT    2.49   2.76    4  257    6 -99.9  80.2 -999.9 -9.9 -9.999 -99.9 -99.99 -9.99
2019/08/20 11:06 EDT    2.53   2.84    4  240    5 -99.9  80.8 -999.9 -9.9 -9.999 -99.9 -99.99 -9.99
2019/08/20 11:12 EDT    2.56   2.85    4  238    5 -99.9  81.1 -999.9 -9.9 -9.999 -99.9 -99.99 -9.99
2019/08/20 11:18 EDT    2.60   2.90    4  221    5 -99.9  81.3 -999.9 -9.9 -9.999 -99.9 -99.99 -9.99
2019/08/20 11:24 EDT    2.63   2.93    4  234    5 -99.9  81.5 -999.9 -9.9 -9.999 -99.9 -99.99 -9.99
2019/08/20 11:30 EDT    2.66   2.97    4  231    5 -99.9  81.7 -999.9 -9.9 -9.999 -99.9 -99.99 -9.99
2019/08/20 11:36 EDT    2.68   3.05    5  231    6 -99.9  81.7 -999.9 -9.9 -9.999 -99.9 -99.99 -9.99
2019/08/20 11:42 EDT    2.71   3.08    6  218    6 -99.9  81.7 -999.9 -9.9 -9.999 -99.9 -99.99 -9.99
2019/08/20 11:48 EDT    2.72   3.06    6  211    7 -99.9  81.7 -999.9 -9.9 -9.999 -99.9 -99.99 -9.99
2019/08/20 11:54 EDT    2.74   3.07    5  215    6 -99.9  81.9 -999.9 -9.9 -9.999 -99.9 -99.99 -9.99
2019/08/20 12:00 EDT    2.75   3.08    4  229    5 -99.9  81.9 -999.9 -9.9 -9.999 -99.9 -99.99 -9.99
2019/08/20 12:06 EDT    2.76   3.07    5  212    6 -99.9  82.0 -999.9 -9.9 -9.999 -99.9 -99.99 -9.99
2019/08/20 12:12 EDT    2.77   3.07    5  200    6 -99.9  82.0 -999.9 -9.9 -9.999 -99.9 -99.99 -9.99
2019/08/20 12:18 EDT    2.77   3.09    4  204    5 -99.9  82.2 -999.9 -9.9 -9.999 -99.9 -99.99 -9.99
2019/08/20 12:24 EDT    2.77   3.10    4  202    5 -99.9  82.2 -999.9 -9.9 -9.999 -99.9 -99.99 -9.99
2019/08/20 12:30 EDT    2.77   3.13    4  201    5 -99.9  82.2 -999.9 -9.9 -9.999 -99.9 -99.99 -9.99
2019/08/20 12:36 EDT    2.77   3.15    3  199    4 -99.9  82.2 -999.9 -9.9 -9.999 -99.9 -99.99 -9.99
2019/08/20 12:42 EDT    2.76   3.17    3  201    4 -99.9  82.4 -999.9 -9.9 -9.999 -99.9 -99.99 -9.99
2019/08/20 12:48 EDT    2.75   3.17    3  205    4 -99.9  82.4 -999.9 -9.9 -9.999 -99.9 -99.99 -9.99
2019/08/20 12:54 EDT    2.74   3.15    3  223    4 -99.9  82.4 -999.9 -9.9 -9.999 -99.9 -99.99 -9.99
2019/08/20 13:00 EDT    2.72   3.12    2  221    3 -99.9  82.2 -999.9 -9.9 -9.999 -99.9 -99.99 -9.99
2019/08/20 13:06 EDT    2.71   3.09    3  227    4 -99.9  82.2 -999.9 -9.9 -9.999 -99.9 -99.99 -9.99
2019/08/20 13:12 EDT    2.69   3.08    1  249    3 -99.9  82.2 -999.9 -9.9 -9.999 -99.9 -99.99 -9.99
2019/08/20 13:18 EDT    2.66   3.07    1  262    2 -99.9  82.4 -999.9 -9.9 -9.999 -99.9 -99.99 -9.99
2019/08/20 13:24 EDT    2.64   3.06    3  291    3 -99.9  82.4 -999.9 -9.9 -9.999 -99.9 -99.99 -9.99
2019/08/20 13:30 EDT    2.61   3.04    2  293    3 -99.9  82.4 -999.9 -9.9 -9.999 -99.9 -99.99 -9.99
2019/08/20 13:36 EDT    2.59   3.01    2  280    3 -99.9  82.6 -999.9 -9.9 -9.999 -99.9 -99.99 -9.99
2019/08/20 13:42 EDT    2.56   2.99    2  222    3 -99.9  82.6 -999.9 -9.9 -9.999 -99.9 -99.99 -9.99
2019/08/20 13:48 EDT    2.52   2.95    3  181    4 -99.9  82.8 -999.9 -9.9 -9.999 -99.9 -99.99 -9.99
2019/08/20 13:54 EDT    2.49   2.93    3  185    5 -99.9  82.8 -999.9 -9.9 -9.999 -99.9 -99.99 -9.99
2019/08/20 14:00 EDT    2.45   2.89    5  178    5 -99.9  82.9 -999.9 -9.9 -9.999 -99.9 -99.99 -9.99
2019/08/20 14:06 EDT    2.42   2.86    3  200    5 -99.9  82.9 -999.9 -9.9 -9.999 -99.9 -99.99 -9.99
2019/08/20 14:12 EDT    2.38   2.79    5  188    6 -99.9  82.9 -999.9 -9.9 -9.999 -99.9 -99.99 -9.99
2019/08/20 14:18 EDT    2.34   2.74    6  197    6 -99.9  82.9 -999.9 -9.9 -9.999 -99.9 -99.99 -9.99
2019/08/20 14:24 EDT    2.30   2.71    7  181    8 -99.9  82.8 -999.9 -9.9 -9.999 -99.9 -99.99 -9.99
2019/08/20 14:30 EDT    2.25   2.66    8  180    9 -99.9  82.4 -999.9 -9.9 -9.999 -99.9 -99.99 -9.99
2019/08/20 14:36 EDT    2.21   2.61    8  179    9 -99.9  82.2 -999.9 -9.9 -9.999 -99.9 -99.99 -9.99
2019/08/20 14:42 EDT    2.16   2.57    8  179    9 -99.9  82.2 -999.9 -9.9 -9.999 -99.9 -99.99 -9.99
2019/08/20 14:48 EDT    2.11   2.52    7  176    9 -99.9  81.9 -999.9 -9.9 -9.999 -99.9 -99.99 -9.99
2019/08/20 14:54 EDT    2.06   2.45    8  178    9 -99.9  81.9 -999.9 -9.9 -9.999 -99.9 -99.99 -9.99
2019/08/20 15:00 EDT    2.01   2.37    8  179    9 -99.9  81.9 -999.9 -9.9 -9.999 -99.9 -99.99 -9.99
2019/08/20 15:06 EDT    1.96   2.29    8  174    9 -99.9  81.7 -999.9 -9.9 -9.999 -99.9 -99.99 -9.99
2019/08/20 15:12 EDT    1.91   2.23    7  172    8 -99.9  81.3 -999.9 -9.9 -9.999 -99.9 -99.99 -9.99
2019/08/20 15:18 EDT    1.86   2.20    7  172    8 -99.9  81.3 -999.9 -9.9 -9.999 -99.9 -99.99 -9.99
2019/08/20 15:24 EDT    1.80   2.15    8  173    9 -99.9  81.3 -999.9 -9.9 -9.999 -99.9 -99.99 -9.99
2019/08/20 15:30 EDT    1.75   2.09    8  179    9 -99.9  81.1 -999.9 -9.9 -9.999 -99.9 -99.99 -9.99
2019/08/20 15:36 EDT    1.69   2.01    9  179   10 -99.9  81.1 -999.9 -9.9 -9.999 -99.9 -99.99 -9.99
2019/08/20 15:42 EDT    1.64   1.95    8  176    9 -99.9  81.3 -999.9 -9.9 -9.999 -99.9 -99.99 -9.99
2019/08/20 15:48 EDT    1.58   1.88    8  168    9 -99.9  81.3 -999.9 -9.9 -9.999 -99.9 -99.99 -9.99
2019/08/20 15:54 EDT    1.52   1.81    7  164    9 -99.9  81.3 -999.9 -9.9 -9.999 -99.9 -99.99 -9.99
2019/08/20 16:00 EDT    1.47   1.75    7  166    8 -99.9  81.3 -999.9 -9.9 -9.999 -99.9 -99.99 -9.99
2019/08/20 16:06 EDT    1.41   1.68    6  170    7 -99.9  81.3 -999.9 -9.9 -9.999 -99.9 -99.99 -9.99
2019/08/20 16:12 EDT    1.36   1.63    7  171    8 -99.9  81.3 -999.9 -9.9 -9.999 -99.9 -99.99 -9.99
2019/08/20 16:18 EDT    1.30   1.59    6  166    8 -99.9  81.3 -999.9 -9.9 -9.999 -99.9 -99.99 -9.99
2019/08/20 16:24 EDT    1.25   1.50    7  173    8 -99.9  81.3 -999.9 -9.9 -9.999 -99.9 -99.99 -9.99
2019/08/20 16:30 EDT    1.20   1.46    7  160    8 -99.9  81.3 -999.9 -9.9 -9.999 -99.9 -99.99 -9.99
2019/08/20 16:36 EDT    1.14   1.39    7  166    9 -99.9  81.3 -999.9 -9.9 -9.999 -99.9 -99.99 -9.99
2019/08/20 16:42 EDT    1.09   1.33    6  175    8 -99.9  81.1 -999.9 -9.9 -9.999 -99.9 -99.99 -9.99
2019/08/20 16:48 EDT    1.05   1.29    7  178    8 -99.9  81.1 -999.9 -9.9 -9.999 -99.9 -99.99 -9.99
2019/08/20 16:54 EDT    1.00   1.24    6  181    7 -99.9  81.1 -999.9 -9.9 -9.999 -99.9 -99.99 -9.99
2019/08/20 17:00 EDT    0.95   1.19    4  189    5 -99.9  81.0 -999.9 -9.9 -9.999 -99.9 -99.99 -9.99
2019/08/20 17:06 EDT    0.91   1.15    5  184    5 -99.9  81.0 -999.9 -9.9 -9.999 -99.9 -99.99 -9.99
2019/08/20 17:12 EDT    0.87   1.13    5  180    5 -99.9  81.0 -999.9 -9.9 -9.999 -99.9 -99.99 -9.99
2019/08/20 17:18 EDT    0.83   1.08    6  173    7 -99.9  81.0 -999.9 -9.9 -9.999 -99.9 -99.99 -9.99
2019/08/20 17:24 EDT    0.79   1.05    6  169    7 -99.9  81.0 -999.9 -9.9 -9.999 -99.9 -99.99 -9.99
2019/08/20 17:30 EDT    0.76   1.00    6  171    7 -99.9  81.1 -999.9 -9.9 -9.999 -99.9 -99.99 -9.99
2019/08/20 17:36 EDT    0.73   0.95    7  161    8 -99.9  81.1 -999.9 -9.9 -9.999 -99.9 -99.99 -9.99
2019/08/20 17:42 EDT    0.70   0.93    6  147    7 -99.9  81.1 -999.9 -9.9 -9.999 -99.9 -99.99 -9.99
2019/08/20 17:48 EDT    0.67   0.93    5  164    7 -99.9  81.1 -999.9 -9.9 -9.999 -99.9 -99.99 -9.99
2019/08/20 17:54 EDT    0.65   0.92    7  164    8 -99.9  81.1 -999.9 -9.9 -9.999 -99.9 -99.99 -9.99
2019/08/20 18:00 EDT    0.63   0.91    8  159    9 -99.9  81.1 -999.9 -9.9 -9.999 -99.9 -99.99 -9.99
2019/08/20 18:06 EDT    0.61   0.88    8  159    9 -99.9  81.3 -999.9 -9.9 -9.999 -99.9 -99.99 -9.99
2019/08/20 18:12 EDT    0.60   0.86    7  147    8 -99.9  81.5 -999.9 -9.9 -9.999 -99.9 -99.99 -9.99
2019/08/20 18:18 EDT    0.59   0.85    8  149    9 -99.9  81.7 -999.9 -9.9 -9.999 -99.9 -99.99 -9.99
2019/08/20 18:24 EDT    0.58   0.85   10  149   11 -99.9  81.7 -999.9 -9.9 -9.999 -99.9 -99.99 -9.99
2019/08/20 18:30 EDT    0.57   0.87    8  148   10 -99.9  81.9 -999.9 -9.9 -9.999 -99.9 -99.99 -9.99
2019/08/20 18:36 EDT    0.57   0.88    7  149    8 -99.9  82.0 -999.9 -9.9 -9.999 -99.9 -99.99 -9.99
2019/08/20 18:42 EDT    0.57   0.89    7  154    8 -99.9  82.0 -999.9 -9.9 -9.999 -99.9 -99.99 -9.99
2019/08/20 18:48 EDT    0.57   0.91    7  149    8 -99.9  82.0 -999.9 -9.9 -9.999 -99.9 -99.99 -9.99
2019/08/20 18:54 EDT    0.57   0.90    7  143    8 -99.9  82.2 -999.9 -9.9 -9.999 -99.9 -99.99 -9.99
2019/08/20 19:00 EDT    0.58   0.92    7  144    8 -99.9  82.4 -999.9 -9.9 -9.999 -99.9 -99.99 -9.99
2019/08/20 19:06 EDT    0.59   0.95    7  150    8 -99.9  82.8 -999.9 -9.9 -9.999 -99.9 -99.99 -9.99
2019/08/20 19:12 EDT    0.60   0.99    6  155    8 -99.9  83.1 -999.9 -9.9 -9.999 -99.9 -99.99 -9.99
2019/08/20 19:18 EDT    0.62   1.08    4  177    6 -99.9  83.1 -999.9 -9.9 -9.999 -99.9 -99.99 -9.99
2019/08/20 19:24 EDT    0.63   1.14   11  234   13 -99.9  83.1 -999.9 -9.9 -9.999 -99.9 -99.99 -9.99
2019/08/20 19:30 EDT    0.65   1.13   14  247   16 -99.9  83.3 -999.9 -9.9 -9.999 -99.9 -99.99 -9.99
2019/08/20 19:36 EDT    0.67   1.14   14  240   18 -99.9  83.3 -999.9 -9.9 -9.999 -99.9 -99.99 -9.99
2019/08/20 19:42 EDT    0.70   1.15   12  219   19 -99.9  83.1 -999.9 -9.9 -9.999 -99.9 -99.99 -9.99
2019/08/20 19:48 EDT    0.72   1.13   10  219   12 -99.9  82.8 -999.9 -9.9 -9.999 -99.9 -99.99 -9.99
2019/08/20 19:54 EDT    0.75   1.12   13  210   17 -99.9  82.4 -999.9 -9.9 -9.999 -99.9 -99.99 -9.99
2019/08/20 20:00 EDT    0.78   1.12   14  204   19 -99.9  82.2 -999.9 -9.9 -9.999 -99.9 -99.99 -9.99
2019/08/20 20:06 EDT    0.81   1.16   13  202   16 -99.9  82.4 -999.9 -9.9 -9.999 -99.9 -99.99 -9.99
2019/08/20 20:12 EDT    0.84   1.21   16  192   18 -99.9  82.4 -999.9 -9.9 -9.999 -99.9 -99.99 -9.99
2019/08/20 20:18 EDT    0.88   1.29   19  195   22 -99.9  82.2 -999.9 -9.9 -9.999 -99.9 -99.99 -9.99
2019/08/20 20:24 EDT    0.92   1.28   19  192   25 -99.9  82.6 -999.9 -9.9 -9.999 -99.9 -99.99 -9.99
2019/08/20 20:30 EDT    0.96   1.36   18  190   22 -99.9  82.9 -999.9 -9.9 -9.999 -99.9 -99.99 -9.99
2019/08/20 20:36 EDT    1.00   1.45   17  186   21 -99.9  83.1 -999.9 -9.9 -9.999 -99.9 -99.99 -9.99
2019/08/20 20:42 EDT    1.04   1.39   18  182   21 -99.9  83.1 -999.9 -9.9 -9.999 -99.9 -99.99 -9.99
2019/08/20 20:48 EDT    1.08   1.35   16  180   19 -99.9  83.1 -999.9 -9.9 -9.999 -99.9 -99.99 -9.99
2019/08/20 20:54 EDT    1.13   1.34   13  184   17 -99.9  83.1 -999.9 -9.9 -9.999 -99.9 -99.99 -9.99
2019/08/20 21:00 EDT    1.17   1.36   12  197   15 -99.9  82.9 -999.9 -9.9 -9.999 -99.9 -99.99 -9.99
2019/08/20 21:06 EDT    1.22   1.43   11  193   14 -99.9  82.9 -999.9 -9.9 -9.999 -99.9 -99.99 -9.99
2019/08/20 21:12 EDT    1.27   1.42   11  181   11 -99.9  82.9 -999.9 -9.9 -9.999 -99.9 -99.99 -9.99
2019/08/20 21:18 EDT    1.32   1.47   10  212   11 -99.9  82.8 -999.9 -9.9 -9.999 -99.9 -99.99 -9.99
2019/08/20 21:24 EDT    1.37   1.52   12  217   15 -99.9  82.8 -999.9 -9.9 -9.999 -99.9 -99.99 -9.99
2019/08/20 21:30 EDT    1.43   1.59   13  220   15 -99.9  82.8 -999.9 -9.9 -9.999 -99.9 -99.99 -9.99
2019/08/20 21:36 EDT    1.48   1.67   13  225   15 -99.9  82.6 -999.9 -9.9 -9.999 -99.9 -99.99 -9.99
2019/08/20 21:42 EDT    1.53   1.76   11  237   15 -99.9  82.6 -999.9 -9.9 -9.999 -99.9 -99.99 -9.99
2019/08/20 21:48 EDT    1.59   1.84   12  238   14 -99.9  82.4 -999.9 -9.9 -9.999 -99.9 -99.99 -9.99
2019/08/20 21:54 EDT    1.64   1.87   10  251   14 -99.9  82.4 -999.9 -9.9 -9.999 -99.9 -99.99 -9.99
2019/08/20 22:00 EDT    1.70   1.87   10  247   13 -99.9  82.4 -999.9 -9.9 -9.999 -99.9 -99.99 -9.99
2019/08/20 22:06 EDT    1.75   1.96    9  238   11 -99.9  82.2 -999.9 -9.9 -9.999 -99.9 -99.99 -9.99
2019/08/20 22:12 EDT    1.81   2.02   10  225   12 -99.9  82.2 -999.9 -9.9 -9.999 -99.9 -99.99 -9.99
2019/08/20 22:18 EDT    1.86   2.07   12  231   15 -99.9  82.2 -999.9 -9.9 -9.999 -99.9 -99.99 -9.99
2019/08/20 22:24 EDT    1.91   2.09   10  241   14 -99.9  82.2 -999.9 -9.9 -9.999 -99.9 -99.99 -9.99
2019/08/20 22:30 EDT    1.97   2.17    8  245   11 -99.9  82.2 -999.9 -9.9 -9.999 -99.9 -99.99 -9.99
2019/08/20 22:36 EDT    2.02   2.19    7  254    8 -99.9  82.2 -999.9 -9.9 -9.999 -99.9 -99.99 -9.99
2019/08/20 22:42 EDT    2.07   2.28    7  267    9 -99.9  82.2 -999.9 -9.9 -9.999 -99.9 -99.99 -9.99
2019/08/20 22:48 EDT    2.12   2.39    7  280   10 -99.9  82.2 -999.9 -9.9 -9.999 -99.9 -99.99 -9.99
2019/08/20 22:54 EDT    2.17   2.47    6  285    8 -99.9  82.2 -999.9 -9.9 -9.999 -99.9 -99.99 -9.99
2019/08/20 23:00 EDT    2.21   2.56   11  323   12 -99.9  82.2 -999.9 -9.9 -9.999 -99.9 -99.99 -9.99
2019/08/20 23:06 EDT    2.26   2.60    9  304   11 -99.9  82.2 -999.9 -9.9 -9.999 -99.9 -99.99 -9.99
2019/08/20 23:12 EDT    2.30   2.60   11  304   13 -99.9  82.2 -999.9 -9.9 -9.999 -99.9 -99.99 -9.99
2019/08/20 23:18 EDT    2.34   2.68   12  310   14 -99.9  82.0 -999.9 -9.9 -9.999 -99.9 -99.99 -9.99
2019/08/20 23:24 EDT    2.38   2.74   11  311   13 -99.9  82.0 -999.9 -9.9 -9.999 -99.9 -99.99 -9.99
2019/08/20 23:30 EDT    2.41   2.80   11  306   13 -99.9  82.0 -999.9 -9.9 -9.999 -99.9 -99.99 -9.99
2019/08/20 23:36 EDT    2.44   2.81    9  305   12 -99.9  82.0 -999.9 -9.9 -9.999 -99.9 -99.99 -9.99
2019/08/20 23:42 EDT    2.47   2.83    8  326   10 -99.9  82.0 -999.9 -9.9 -9.999 -99.9 -99.99 -9.99
2019/08/20 23:48 EDT    2.50   2.87    8    3    9 -99.9  82.0 -999.9 -9.9 -9.999 -99.9 -99.99 -9.99
2019/08/20 23:54 EDT    2.52   2.94    6   14    9 -99.9  82.0 -999.9 -9.9 -9.999 -99.9 -99.99 -9.99
2019/08/21 00:00 EDT    2.54   2.97    5  358    7 -99.9  82.0 -999.9 -9.9 -9.999 -99.9 -99.99 -9.99
2019/08/21 00:06 EDT    2.56   3.00    4    1    7 -99.9  82.0 -999.9 -9.9 -9.999 -99.9 -99.99 -9.99
2019/08/21 00:12 EDT    2.58   3.05    4    7    6 -99.9  82.0 -999.9 -9.9 -9.999 -99.9 -99.99 -9.99
2019/08/21 00:18 EDT    2.59   3.05    4   13    5 -99.9  82.0 -999.9 -9.9 -9.999 -99.9 -99.99 -9.99
2019/08/21 00:24 EDT    2.60   3.08    3    7    4 -99.9  82.0 -999.9 -9.9 -9.999 -99.9 -99.99 -9.99
2019/08/21 00:30 EDT    2.60   3.10    3   25    3 -99.9  82.0 -999.9 -9.9 -9.999 -99.9 -99.99 -9.99
2019/08/21 00:36 EDT    2.61   3.03    2    8    3 -99.9  82.0 -999.9 -9.9 -9.999 -99.9 -99.99 -9.99
2019/08/21 00:42 EDT    2.61   3.02    3   19    3 -99.9  82.0 -999.9 -9.9 -9.999 -99.9 -99.99 -9.99
2019/08/21 00:48 EDT    2.60   2.99    2   38    3 -99.9  81.9 -999.9 -9.9 -9.999 -99.9 -99.99 -9.99
2019/08/21 00:54 EDT    2.60   3.01    1   57    3 -99.9  81.9 -999.9 -9.9 -9.999 -99.9 -99.99 -9.99
2019/08/21 01:00 EDT    2.59   3.01    1   72    2 -99.9  81.9 -999.9 -9.9 -9.999 -99.9 -99.99 -9.99
2019/08/21 01:06 EDT    2.58   3.04    2  307    2 -99.9  81.9 -999.9 -9.9 -9.999 -99.9 -99.99 -9.99
2019/08/21 01:12 EDT    2.57   2.99    4  357    4 -99.9  81.9 -999.9 -9.9 -9.999 -99.9 -99.99 -9.99
2019/08/21 01:18 EDT    2.55   2.99    1   45    4 -99.9  81.9 -999.9 -9.9 -9.999 -99.9 -99.99 -9.99
2019/08/21 01:24 EDT    2.53   3.02    2    5    2 -99.9  81.9 -999.9 -9.9 -9.999 -99.9 -99.99 -9.99
2019/08/21 01:30 EDT    2.51   3.00   10  324   11 -99.9  81.9 -999.9 -9.9 -9.999 -99.9 -99.99 -9.99
2019/08/21 01:36 EDT    2.49   2.98   14  320   16 -99.9  81.9 -999.9 -9.9 -9.999 -99.9 -99.99 -9.99
2019/08/21 01:42 EDT    2.46   2.96   17  320   18 -99.9  81.9 -999.9 -9.9 -9.999 -99.9 -99.99 -9.99
2019/08/21 01:48 EDT    2.44   2.95   14  331   19 -99.9  81.9 -999.9 -9.9 -9.999 -99.9 -99.99 -9.99
2019/08/21 01:54 EDT    2.41   2.91   10  335   15 -99.9  81.9 -999.9 -9.9 -9.999 -99.9 -99.99 -9.99
2019/08/21 02:00 EDT    2.38   2.88   11  326   13 -99.9  81.7 -999.9 -9.9 -9.999 -99.9 -99.99 -9.99
2019/08/21 02:06 EDT    2.34   2.81    9  311   11 -99.9  81.9 -999.9 -9.9 -9.999 -99.9 -99.99 -9.99
2019/08/21 02:12 EDT    2.31   2.74    6  324    9 -99.9  81.7 -999.9 -9.9 -9.999 -99.9 -99.99 -9.99
2019/08/21 02:18 EDT    2.27   2.70    5  340    8 -99.9  81.5 -999.9 -9.9 -9.999 -99.9 -99.99 -9.99
2019/08/21 02:24 EDT    2.23   2.67    3  324    5 -99.9  81.5 -999.9 -9.9 -9.999 -99.9 -99.99 -9.99
2019/08/21 02:30 EDT    2.19   2.61    2  266    3 -99.9  81.5 -999.9 -9.9 -9.999 -99.9 -99.99 -9.99
2019/08/21 02:36 EDT    2.15   2.60    3  239    4 -99.9  81.3 -999.9 -9.9 -9.999 -99.9 -99.99 -9.99
2019/08/21 02:42 EDT    2.11   2.55    4  235    5 -99.9  81.1 -999.9 -9.9 -9.999 -99.9 -99.99 -9.99
2019/08/21 02:48 EDT    2.06   2.48    4  218    5 -99.9  81.1 -999.9 -9.9 -9.999 -99.9 -99.99 -9.99
2019/08/21 02:54 EDT    2.02   2.44    4  214    5 -99.9  81.3 -999.9 -9.9 -9.999 -99.9 -99.99 -9.99
2019/08/21 03:00 EDT    1.97   2.36    5  199    6 -99.9  81.1 -999.9 -9.9 -9.999 -99.9 -99.99 -9.99
2019/08/21 03:06 EDT    1.92   2.26    5  205    5 -99.9  81.3 -999.9 -9.9 -9.999 -99.9 -99.99 -9.99
2019/08/21 03:12 EDT    1.87   2.18    5  199    7 -99.9  81.1 -999.9 -9.9 -9.999 -99.9 -99.99 -9.99
2019/08/21 03:18 EDT    1.82   2.11    5  192    6 -99.9  81.1 -999.9 -9.9 -9.999 -99.9 -99.99 -9.99
2019/08/21 03:24 EDT    1.76   2.03    6  188    7 -99.9  81.0 -999.9 -9.9 -9.999 -99.9 -99.99 -9.99
2019/08/21 03:30 EDT    1.71   1.90    5  184    6 -99.9  81.1 -999.9 -9.9 -9.999 -99.9 -99.99 -9.99
2019/08/21 03:36 EDT    1.66   1.84    6  195    6 -99.9  81.1 -999.9 -9.9 -9.999 -99.9 -99.99 -9.99
2019/08/21 03:42 EDT    1.60   1.76    6  203    7 -99.9  81.0 -999.9 -9.9 -9.999 -99.9 -99.99 -9.99
2019/08/21 03:48 EDT    1.54   1.72    6  200    7 -99.9  80.8 -999.9 -9.9 -9.999 -99.9 -99.99 -9.99
2019/08/21 03:54 EDT    1.49   1.61    6  202    7 -99.9  80.8 -999.9 -9.9 -9.999 -99.9 -99.99 -9.99
2019/08/21 04:00 EDT    1.43   1.56    6  196    7 -99.9  80.8 -999.9 -9.9 -9.999 -99.9 -99.99 -9.99
2019/08/21 04:06 EDT    1.38   1.45    6  198    7 -99.9  80.8 -999.9 -9.9 -9.999 -99.9 -99.99 -9.99
2019/08/21 04:12 EDT    1.32   1.40    6  202    6 -99.9  80.6 -999.9 -9.9 -9.999 -99.9 -99.99 -9.99
2019/08/21 04:18 EDT    1.26   1.33    6  199    7 -99.9  80.6 -999.9 -9.9 -9.999 -99.9 -99.99 -9.99
2019/08/21 04:24 EDT    1.21   1.27    7  195    8 -99.9  80.6 -999.9 -9.9 -9.999 -99.9 -99.99 -9.99
2019/08/21 04:30 EDT    1.15   1.23    7  197    8 -99.9  80.8 -999.9 -9.9 -9.999 -99.9 -99.99 -9.99
2019/08/21 04:36 EDT    1.09   1.15    8  193    9 -99.9  80.6 -999.9 -9.9 -9.999 -99.9 -99.99 -9.99
2019/08/21 04:42 EDT    1.04   1.12    8  186    9 -99.9  80.6 -999.9 -9.9 -9.999 -99.9 -99.99 -9.99
2019/08/21 04:48 EDT    0.99   1.06    8  191    9 -99.9  80.6 -999.9 -9.9 -9.999 -99.9 -99.99 -9.99
2019/08/21 04:54 EDT    0.94   1.02    9  189   11 -99.9  80.6 -999.9 -9.9 -9.999 -99.9 -99.99 -9.99
2019/08/21 05:00 EDT    0.88   1.00   10  196   11 -99.9  80.6 -999.9 -9.9 -9.999 -99.9 -99.99 -9.99
2019/08/21 05:06 EDT    0.84   0.97    9  196   11 -99.9  80.6 -999.9 -9.9 -9.999 -99.9 -99.99 -9.99
2019/08/21 05:12 EDT    0.79   0.91    8  193   10 -99.9  80.6 -999.9 -9.9 -9.999 -99.9 -99.99 -9.99
2019/08/21 05:18 EDT    0.74   0.89    8  197    9 -99.9  80.6 -999.9 -9.9 -9.999 -99.9 -99.99 -9.99
2019/08/21 05:24 EDT    0.70   0.85    9  195   10 -99.9  80.6 -999.9 -9.9 -9.999 -99.9 -99.99 -9.99
2019/08/21 05:30 EDT    0.66   0.83    9  193   11 -99.9  80.6 -999.9 -9.9 -9.999 -99.9 -99.99 -9.99
2019/08/21 05:36 EDT    0.62   0.81    9  197   11 -99.9  80.6 -999.9 -9.9 -9.999 -99.9 -99.99 -9.99
2019/08/21 05:42 EDT    0.59   0.79    9  196   10 -99.9  80.6 -999.9 -9.9 -9.999 -99.9 -99.99 -9.99
2019/08/21 05:48 EDT    0.56   0.77   10  202   12 -99.9  80.6 -999.9 -9.9 -9.999 -99.9 -99.99 -9.99
2019/08/21 05:54 EDT    0.53   0.78   10  196   12 -99.9  80.6 -999.9 -9.9 -9.999 -99.9 -99.99 -9.99
2019/08/21 06:00 EDT    0.50   0.76   11  203   14 -99.9  80.6 -999.9 -9.9 -9.999 -99.9 -99.99 -9.99
2019/08/21 06:06 EDT    0.48   0.76   12  218   14 -99.9  80.6 -999.9 -9.9 -9.999 -99.9 -99.99 -9.99
2019/08/21 06:12 EDT    0.46   0.73   13  222   14 -99.9  80.6 -999.9 -9.9 -9.999 -99.9 -99.99 -9.99
2019/08/21 06:18 EDT    0.44   0.70   11  220   14 -99.9  80.6 -999.9 -9.9 -9.999 -99.9 -99.99 -9.99
2019/08/21 06:24 EDT    0.42   0.72   15  231   17 -99.9  80.4 -999.9 -9.9 -9.999 -99.9 -99.99 -9.99
2019/08/21 06:30 EDT    0.41   0.73   12  226   17 -99.9  80.6 -999.9 -9.9 -9.999 -99.9 -99.99 -9.99
2019/08/21 06:36 EDT    0.41   0.75   12  234   18 -99.9  80.6 -999.9 -9.9 -9.999 -99.9 -99.99 -9.99
2019/08/21 06:42 EDT    0.40   0.78   15  237   17 -99.9  80.6 -999.9 -9.9 -9.999 -99.9 -99.99 -9.99
2019/08/21 06:48 EDT    0.40   0.76   14  241   17 -99.9  80.6 -999.9 -9.9 -9.999 -99.9 -99.99 -9.99
2019/08/21 06:54 EDT    0.40   0.77   12  243   17 -99.9  80.6 -999.9 -9.9 -9.999 -99.9 -99.99 -9.99
2019/08/21 07:00 EDT    0.41   0.78   13  238   17 -99.9  80.6 -999.9 -9.9 -9.999 -99.9 -99.99 -9.99
2019/08/21 07:06 EDT    0.41   0.76   14  238   17 -99.9  80.6 -999.9 -9.9 -9.999 -99.9 -99.99 -9.99
2019/08/21 07:12 EDT    0.43   0.75   13  237   15 -99.9  80.6 -999.9 -9.9 -9.999 -99.9 -99.99 -9.99
2019/08/21 07:18 EDT    0.44   0.73   13  241   15 -99.9  80.6 -999.9 -9.9 -9.999 -99.9 -99.99 -9.99
2019/08/21 07:24 EDT    0.45   0.77   14  248   16 -99.9  80.6 -999.9 -9.9 -9.999 -99.9 -99.99 -9.99
2019/08/21 07:30 EDT    0.47   0.80   14  249   16 -99.9  80.6 -999.9 -9.9 -9.999 -99.9 -99.99 -9.99
2019/08/21 07:36 EDT    0.50   0.81   13  248   15 -99.9  80.6 -999.9 -9.9 -9.999 -99.9 -99.99 -9.99
2019/08/21 07:42 EDT    0.52   0.84   11  250   15 -99.9  80.6 -999.9 -9.9 -9.999 -99.9 -99.99 -9.99
2019/08/21 07:48 EDT    0.55   0.86   11  247   15 -99.9  80.6 -999.9 -9.9 -9.999 -99.9 -99.99 -9.99
2019/08/21 07:54 EDT    0.58   0.88   11  248   14 -99.9  80.6 -999.9 -9.9 -9.999 -99.9 -99.99 -9.99
2019/08/21 08:00 EDT    0.61   0.91   11  242   14 -99.9  80.8 -999.9 -9.9 -9.999 -99.9 -99.99 -9.99
2019/08/21 08:06 EDT    0.64   0.93   10  243   14 -99.9  80.8 -999.9 -9.9 -9.999 -99.9 -99.99 -9.99
2019/08/21 08:12 EDT    0.68   0.96   11  240   14 -99.9  80.8 -999.9 -9.9 -9.999 -99.9 -99.99 -9.99
2019/08/21 08:18 EDT    0.71   0.99   11  239   13 -99.9  80.8 -999.9 -9.9 -9.999 -99.9 -99.99 -9.99
2019/08/21 08:24 EDT    0.75   1.03   11  234   13 -99.9  80.8 -999.9 -9.9 -9.999 -99.9 -99.99 -9.99
2019/08/21 08:30 EDT    0.80   1.07    9  240   13 -99.9  80.8 -999.9 -9.9 -9.999 -99.9 -99.99 -9.99
2019/08/21 08:36 EDT    0.84   1.11   10  237   12 -99.9  80.8 -999.9 -9.9 -9.999 -99.9 -99.99 -9.99
2019/08/21 08:42 EDT    0.88   1.16   10  231   12 -99.9  80.8 -999.9 -9.9 -9.999 -99.9 -99.99 -9.99
2019/08/21 08:48 EDT    0.93   1.22   10  223   12 -99.9  80.8 -999.9 -9.9 -9.999 -99.9 -99.99 -9.99
2019/08/21 08:54 EDT    0.98   1.28   11  229   13 -99.9  80.8 -999.9 -9.9 -9.999 -99.9 -99.99 -9.99
2019/08/21 09:00 EDT    1.03   1.32   10  233   13 -99.9  80.8 -999.9 -9.9 -9.999 -99.9 -99.99 -9.99
2019/08/21 09:06 EDT    1.08   1.34   10  225   11 -99.9  80.8 -999.9 -9.9 -9.999 -99.9 -99.99 -9.99
2019/08/21 09:12 EDT    1.14   1.41   10  221   12 -99.9  80.8 -999.9 -9.9 -9.999 -99.9 -99.99 -9.99
2019/08/21 09:18 EDT    1.19   1.46   10  222   12 -99.9  80.8 -999.9 -9.9 -9.999 -99.9 -99.99 -9.99
2019/08/21 09:24 EDT    1.25   1.54   10  221   12 -99.9  80.8 -999.9 -9.9 -9.999 -99.9 -99.99 -9.99
2019/08/21 09:30 EDT    1.30   1.62   10  221   12 -99.9  80.8 -999.9 -9.9 -9.999 -99.9 -99.99 -9.99
2019/08/21 09:36 EDT    1.36   1.69   10  235   11 -99.9  80.8 -999.9 -9.9 -9.999 -99.9 -99.99 -9.99
2019/08/21 09:42 EDT    1.42   1.74   10  229   12 -99.9  80.8 -999.9 -9.9 -9.999 -99.9 -99.99 -9.99
2019/08/21 09:48 EDT    1.48   1.79   10  232   12 -99.9  80.8 -999.9 -9.9 -9.999 -99.9 -99.99 -9.99
2019/08/21 09:54 EDT    1.54   1.85   10  237   13 -99.9  81.0 -999.9 -9.9 -9.999 -99.9 -99.99 -9.99
2019/08/21 10:00 EDT    1.60   1.95   11  232   12 -99.9  81.0 -999.9 -9.9 -9.999 -99.9 -99.99 -9.99
2019/08/21 10:06 EDT    1.66   1.97   10  229   12 -99.9  81.0 -999.9 -9.9 -9.999 -99.9 -99.99 -9.99
2019/08/21 10:12 EDT    1.72   2.04   10  224   12 -99.9  81.0 -999.9 -9.9 -9.999 -99.9 -99.99 -9.99
2019/08/21 10:18 EDT    1.78   2.10    9  221   12 -99.9  81.0 -999.9 -9.9 -9.999 -99.9 -99.99 -9.99
2019/08/21 10:24 EDT    1.84   2.13    9  223   11 -99.9  81.1 -999.9 -9.9 -9.999 -99.9 -99.99 -9.99
2019/08/21 10:30 EDT    1.90   2.21    9  227   11 -99.9  81.1 -999.9 -9.9 -9.999 -99.9 -99.99 -9.99
2019/08/21 10:36 EDT    1.96   2.25    9  219   11 -99.9  81.1 -999.9 -9.9 -9.999 -99.9 -99.99 -9.99
2019/08/21 10:42 EDT    2.01   2.30    9  223   11 -99.9  81.1 -999.9 -9.9 -9.999 -99.9 -99.99 -9.99
2019/08/21 10:48 EDT    2.07   2.34    9  222   11 -99.9  81.1 -999.9 -9.9 -9.999 -99.9 -99.99 -9.99
2019/08/21 10:54 EDT    2.13   2.38    9  210   11 -99.9  81.1 -999.9 -9.9 -9.999 -99.9 -99.99 -9.99
2019/08/21 11:00 EDT    2.18   2.45    9  212   12 -99.9  81.3 -999.9 -9.9 -9.999 -99.9 -99.99 -9.99
2019/08/21 11:06 EDT    2.24   2.50   10  214   11 -99.9  81.3 -999.9 -9.9 -9.999 -99.9 -99.99 -9.99
2019/08/21 11:12 EDT    2.29   2.56    9  215   12 -99.9  81.5 -999.9 -9.9 -9.999 -99.9 -99.99 -9.99
2019/08/21 11:18 EDT    2.34   2.62    9  217   11 -99.9  81.5 -999.9 -9.9 -9.999 -99.9 -99.99 -9.99
2019/08/21 11:24 EDT    2.39   2.68   10  218   11 -99.9  81.5 -999.9 -9.9 -9.999 -99.9 -99.99 -9.99
2019/08/21 11:30 EDT    2.43   2.72   10  219   12 -99.9  81.5 -999.9 -9.9 -9.999 -99.9 -99.99 -9.99
2019/08/21 11:36 EDT    2.48   2.74   10  218   12 -99.9  81.5 -999.9 -9.9 -9.999 -99.9 -99.99 -9.99
2019/08/21 11:42 EDT    2.52   2.77    9  221   11 -99.9  81.5 -999.9 -9.9 -9.999 -99.9 -99.99 -9.99
2019/08/21 11:48 EDT    2.55   2.81    6  204    8 -99.9  81.5 -999.9 -9.9 -9.999 -99.9 -99.99 -9.99
2019/08/21 11:54 EDT    2.59   2.86    7  213    8 -99.9  81.7 -999.9 -9.9 -9.999 -99.9 -99.99 -9.99
2019/08/21 12:00 EDT    2.62   2.90    6  208    8 -99.9  81.7 -999.9 -9.9 -9.999 -99.9 -99.99 -9.99
2019/08/21 12:06 EDT    2.65   2.91    6  203    7 -99.9  81.7 -999.9 -9.9 -9.999 -99.9 -99.99 -9.99
2019/08/21 12:12 EDT    2.68   2.96    6  199    7 -99.9  81.7 -999.9 -9.9 -9.999 -99.9 -99.99 -9.99
2019/08/21 12:18 EDT    2.70   3.00    6  189    7 -99.9  81.9 -999.9 -9.9 -9.999 -99.9 -99.99 -9.99
2019/08/21 12:24 EDT    2.72   3.02    8  176    9 -99.9  81.9 -999.9 -9.9 -9.999 -99.9 -99.99 -9.99
2019/08/21 12:30 EDT    2.74   3.04    8  174    9 -99.9  81.9 -999.9 -9.9 -9.999 -99.9 -99.99 -9.99
2019/08/21 12:36 EDT    2.76   3.04    8  176    9 -99.9  82.0 -999.9 -9.9 -9.999 -99.9 -99.99 -9.99
2019/08/21 12:42 EDT    2.77   3.06    8  182    9 -99.9  82.0 -999.9 -9.9 -9.999 -99.9 -99.99 -9.99
2019/08/21 12:48 EDT    2.78   3.08   10  183   11 -99.9  82.0 -999.9 -9.9 -9.999 -99.9 -99.99 -9.99
2019/08/21 12:54 EDT    2.78   3.12   11  184   12 -99.9  82.2 -999.9 -9.9 -9.999 -99.9 -99.99 -9.99
2019/08/21 13:00 EDT    2.78   3.13   11  182   12 -99.9  82.2 -999.9 -9.9 -9.999 -99.9 -99.99 -9.99
2019/08/21 13:06 EDT    2.78   3.13   10  181   12 -99.9  82.2 -999.9 -9.9 -9.999 -99.9 -99.99 -9.99
2019/08/21 13:12 EDT    2.78   3.11    9  185   11 -99.9  82.2 -999.9 -9.9 -9.999 -99.9 -99.99 -9.99
2019/08/21 13:18 EDT    2.78   3.12   11  184   12 -99.9  82.2 -999.9 -9.9 -9.999 -99.9 -99.99 -9.99
2019/08/21 13:24 EDT    2.77   3.13    9  179   12 -99.9  82.2 -999.9 -9.9 -9.999 -99.9 -99.99 -9.99
2019/08/21 13:30 EDT    2.76   3.20   10  175   12 -99.9  82.2 -999.9 -9.9 -9.999 -99.9 -99.99 -9.99
2019/08/21 13:36 EDT    2.74   3.12   11  164   13 -99.9  82.0 -999.9 -9.9 -9.999 -99.9 -99.99 -9.99
2019/08/21 13:42 EDT    2.73   3.07   12  158   14 -99.9  82.0 -999.9 -9.9 -9.999 -99.9 -99.99 -9.99
2019/08/21 13:48 EDT    2.71   3.10    9  191   12 -99.9  82.0 -999.9 -9.9 -9.999 -99.9 -99.99 -9.99
2019/08/21 13:54 EDT    2.69   3.08    6  245   19 -99.9  82.0 -999.9 -9.9 -9.999 -99.9 -99.99 -9.99
2019/08/21 14:00 EDT    2.67   3.01    5  236    7 -99.9  82.0 -999.9 -9.9 -9.999 -99.9 -99.99 -9.99
2019/08/21 14:06 EDT    2.64   2.96    5  181    8 -99.9  82.2 -999.9 -9.9 -9.999 -99.9 -99.99 -9.99
2019/08/21 14:12 EDT    2.62   3.02    9  208   11 -99.9  82.2 -999.9 -9.9 -9.999 -99.9 -99.99 -9.99
2019/08/21 14:18 EDT    2.59   3.07   18  212   31 -99.9  82.2 -999.9 -9.9 -9.999 -99.9 -99.99 -9.99
2019/08/21 14:24 EDT    2.56   3.09   20  222   30 -99.9  82.2 -999.9 -9.9 -9.999 -99.9 -99.99 -9.99
2019/08/21 14:30 EDT    2.53   3.33   16  215   22 -99.9  82.2 -999.9 -9.9 -9.999 -99.9 -99.99 -9.99
2019/08/21 14:36 EDT    2.49   3.40   17  222   19 -99.9  82.2 -999.9 -9.9 -9.999 -99.9 -99.99 -9.99
2019/08/21 14:42 EDT    2.46   3.29   15  210   20 -99.9  82.2 -999.9 -9.9 -9.999 -99.9 -99.99 -9.99
2019/08/21 14:48 EDT    2.42   2.56   15  207   19 -99.9  82.2 -999.9 -9.9 -9.999 -99.9 -99.99 -9.99
2019/08/21 14:54 EDT    2.39   2.36   12  205   18 -99.9  82.2 -999.9 -9.9 -9.999 -99.9 -99.99 -9.99
2019/08/21 15:00 EDT    2.35   2.48   11  200   14 -99.9  82.0 -999.9 -9.9 -9.999 -99.9 -99.99 -9.99
2019/08/21 15:06 EDT    2.31   2.52   13  194   15 -99.9  82.0 -999.9 -9.9 -9.999 -99.9 -99.99 -9.99
2019/08/21 15:12 EDT    2.27   2.50   10  199   13 -99.9  82.0 -999.9 -9.9 -9.999 -99.9 -99.99 -9.99
2019/08/21 15:18 EDT    2.22   2.45   12  202   14 -99.9  82.0 -999.9 -9.9 -9.999 -99.9 -99.99 -9.99
2019/08/21 15:24 EDT    2.18   2.42   11  202   13 -99.9  81.9 -999.9 -9.9 -9.999 -99.9 -99.99 -9.99
2019/08/21 15:30 EDT    2.13   2.41   11  192   12 -99.9  81.9 -999.9 -9.9 -9.999 -99.9 -99.99 -9.99
2019/08/21 15:36 EDT    2.09   2.39   11  191   13 -99.9  81.9 -999.9 -9.9 -9.999 -99.9 -99.99 -9.99
2019/08/21 15:42 EDT    2.04   2.36   13  196   14 -99.9  81.9 -999.9 -9.9 -9.999 -99.9 -99.99 -9.99
2019/08/21 15:48 EDT    1.99   2.33   13  187   15 -99.9  81.7 -999.9 -9.9 -9.999 -99.9 -99.99 -9.99
2019/08/21 15:54 EDT    1.94   2.21   13  187   15 -99.9  81.3 -999.9 -9.9 -9.999 -99.9 -99.99 -9.99
2019/08/21 16:00 EDT    1.89   2.13   14  184   16 -99.9  81.3 -999.9 -9.9 -9.999 -99.9 -99.99 -9.99
2019/08/21 16:06 EDT    1.84   2.13   15  184   16 -99.9  81.3 -999.9 -9.9 -9.999 -99.9 -99.99 -9.99
2019/08/21 16:12 EDT    1.79   2.07   14  186   18 -99.9  81.3 -999.9 -9.9 -9.999 -99.9 -99.99 -9.99
2019/08/21 16:18 EDT    1.74   1.94   14  191   17 -99.9  81.5 -999.9 -9.9 -9.999 -99.9 -99.99 -9.99
2019/08/21 16:24 EDT    1.68   1.86   15  191   18 -99.9  81.5 -999.9 -9.9 -9.999 -99.9 -99.99 -9.99
2019/08/21 16:30 EDT    1.63   1.74   14  190   16 -99.9  81.5 -999.9 -9.9 -9.999 -99.9 -99.99 -9.99
2019/08/21 16:36 EDT    1.58   1.70   14  189   16 -99.9  81.7 -999.9 -9.9 -9.999 -99.9 -99.99 -9.99
2019/08/21 16:42 EDT    1.53   1.69   15  186   17 -99.9  81.7 -999.9 -9.9 -9.999 -99.9 -99.99 -9.99
2019/08/21 16:48 EDT    1.47   1.68   14  188   16 -99.9  81.7 -999.9 -9.9 -9.999 -99.9 -99.99 -9.99
2019/08/21 16:54 EDT    1.42   1.64   12  189   15 -99.9  81.7 -999.9 -9.9 -9.999 -99.9 -99.99 -9.99
2019/08/21 17:00 EDT    1.37   1.62   11  188   14 -99.9  81.7 -999.9 -9.9 -9.999 -99.9 -99.99 -9.99
2019/08/21 17:06 EDT    1.32   1.51   13  182   15 -99.9  81.7 -999.9 -9.9 -9.999 -99.9 -99.99 -9.99
2019/08/21 17:12 EDT    1.27   1.43   12  187   15 -99.9  81.9 -999.9 -9.9 -9.999 -99.9 -99.99 -9.99
2019/08/21 17:18 EDT    1.22   1.43   12  186   14 -99.9  81.7 -999.9 -9.9 -9.999 -99.9 -99.99 -9.99
2019/08/21 17:24 EDT    1.17   1.40   11  183   14 -99.9  81.7 -999.9 -9.9 -9.999 -99.9 -99.99 -9.99
2019/08/21 17:30 EDT    1.12   1.34   11  191   12 -99.9  81.5 -999.9 -9.9 -9.999 -99.9 -99.99 -9.99
2019/08/21 17:36 EDT    1.08   1.26   12  192   13 -99.9  81.5 -999.9 -9.9 -9.999 -99.9 -99.99 -9.99
2019/08/21 17:42 EDT    1.03   1.20   12  191   13 -99.9  81.7 -999.9 -9.9 -9.999 -99.9 -99.99 -9.99
2019/08/21 17:48 EDT    0.99   1.15   12  193   13 -99.9  81.5 -999.9 -9.9 -9.999 -99.9 -99.99 -9.99
2019/08/21 17:54 EDT    0.95   1.09   11  194   13 -99.9  81.5 -999.9 -9.9 -9.999 -99.9 -99.99 -9.99
2019/08/21 18:00 EDT    0.91   1.07   11  195   13 -99.9  81.5 -999.9 -9.9 -9.999 -99.9 -99.99 -9.99
2019/08/21 18:06 EDT    0.88   1.05   11  201   12 -99.9  81.5 -999.9 -9.9 -9.999 -99.9 -99.99 -9.99
2019/08/21 18:12 EDT    0.84   1.01   11  200   13 -99.9  81.7 -999.9 -9.9 -9.999 -99.9 -99.99 -9.99
2019/08/21 18:18 EDT    0.81   0.97   11  199   13 -99.9  81.7 -999.9 -9.9 -9.999 -99.9 -99.99 -9.99
2019/08/21 18:24 EDT    0.78   0.92   11  198   13 -99.9  81.5 -999.9 -9.9 -9.999 -99.9 -99.99 -9.99
2019/08/21 18:30 EDT    0.76   0.93   11  196   13 -99.9  81.7 -999.9 -9.9 -9.999 -99.9 -99.99 -9.99
2019/08/21 18:36 EDT    0.73   0.92   10  200   12 -99.9  81.9 -999.9 -9.9 -9.999 -99.9 -99.99 -9.99
2019/08/21 18:42 EDT    0.71   0.89    9  203   11 -99.9  81.9 -999.9 -9.9 -9.999 -99.9 -99.99 -9.99
2019/08/21 18:48 EDT    0.69   0.87   10  202   12 -99.9  81.9 -999.9 -9.9 -9.999 -99.9 -99.99 -9.99
2019/08/21 18:54 EDT    0.68   0.88    9  204   11 -99.9  81.9 -999.9 -9.9 -9.999 -99.9 -99.99 -9.99
2019/08/21 19:00 EDT    0.66   0.83    8  208   11 -99.9  82.0 -999.9 -9.9 -9.999 -99.9 -99.99 -9.99
2019/08/21 19:06 EDT    0.65   0.83    8  215    9 -99.9  82.0 -999.9 -9.9 -9.999 -99.9 -99.99 -9.99
2019/08/21 19:12 EDT    0.65   0.78    8  216    9 -99.9  82.0 -999.9 -9.9 -9.999 -99.9 -99.99 -9.99
2019/08/21 19:18 EDT    0.64   0.81    8  239   10 -99.9  82.0 -999.9 -9.9 -9.999 -99.9 -99.99 -9.99
2019/08/21 19:24 EDT    0.64   0.77    9  248   11 -99.9  82.0 -999.9 -9.9 -9.999 -99.9 -99.99 -9.99
2019/08/21 19:30 EDT    0.64   0.81    9  251   11 -99.9  82.0 -999.9 -9.9 -9.999 -99.9 -99.99 -9.99
2019/08/21 19:36 EDT    0.64   0.84    8  242   10 -99.9  82.0 -999.9 -9.9 -9.999 -99.9 -99.99 -9.99
2019/08/21 19:42 EDT    0.65   0.90   10  248   12 -99.9  82.0 -999.9 -9.9 -9.999 -99.9 -99.99 -9.99
2019/08/21 19:48 EDT    0.66   0.86   10  244   12 -99.9  82.2 -999.9 -9.9 -9.999 -99.9 -99.99 -9.99
2019/08/21 19:54 EDT    0.67   0.82    8  246   11 -99.9  82.2 -999.9 -9.9 -9.999 -99.9 -99.99 -9.99
2019/08/21 20:00 EDT    0.68   0.77    8  244   11 -99.9  82.2 -999.9 -9.9 -9.999 -99.9 -99.99 -9.99
2019/08/21 20:06 EDT    0.69   0.78    9  240   10 -99.9  82.2 -999.9 -9.9 -9.999 -99.9 -99.99 -9.99
2019/08/21 20:12 EDT    0.71   0.81   10  241   12 -99.9  82.2 -999.9 -9.9 -9.999 -99.9 -99.99 -9.99
2019/08/21 20:18 EDT    0.73   0.81   10  241   12 -99.9  82.2 -999.9 -9.9 -9.999 -99.9 -99.99 -9.99
2019/08/21 20:24 EDT    0.75   0.84   10  243   12 -99.9  82.2 -999.9 -9.9 -9.999 -99.9 -99.99 -9.99
2019/08/21 20:30 EDT    0.77   0.85   10  242   13 -99.9  82.0 -999.9 -9.9 -9.999 -99.9 -99.99 -9.99
2019/08/21 20:36 EDT    0.79   0.89   12  243   14 -99.9  82.0 -999.9 -9.9 -9.999 -99.9 -99.99 -9.99
2019/08/21 20:42 EDT    0.82   0.91   11  244   14 -99.9  82.0 -999.9 -9.9 -9.999 -99.9 -99.99 -9.99
2019/08/21 20:48 EDT    0.85   0.97   12  245   14 -99.9  82.0 -999.9 -9.9 -9.999 -99.9 -99.99 -9.99
2019/08/21 20:54 EDT    0.88   0.98   12  246   15 -99.9  82.0 -999.9 -9.9 -9.999 -99.9 -99.99 -9.99
2019/08/21 21:00 EDT    0.91   1.02   13  248   15 -99.9  82.0 -999.9 -9.9 -9.999 -99.9 -99.99 -9.99
2019/08/21 21:06 EDT    0.94   1.01   12  250   15 -99.9  82.0 -999.9 -9.9 -9.999 -99.9 -99.99 -9.99
2019/08/21 21:12 EDT    0.98   1.06   11  247   15 -99.9  82.0 -999.9 -9.9 -9.999 -99.9 -99.99 -9.99
2019/08/21 21:18 EDT    1.01   1.10   11  248   13 -99.9  82.0 -999.9 -9.9 -9.999 -99.9 -99.99 -9.99
2019/08/21 21:24 EDT    1.05   1.13   11  241   13 -99.9  82.0 -999.9 -9.9 -9.999 -99.9 -99.99 -9.99
2019/08/21 21:30 EDT    1.09   1.17   11  238   12 -99.9  82.0 -999.9 -9.9 -9.999 -99.9 -99.99 -9.99
2019/08/21 21:36 EDT    1.13   1.19   11  236   13 -99.9  82.0 -999.9 -9.9 -9.999 -99.9 -99.99 -9.99
2019/08/21 21:42 EDT    1.17   1.21   10  242   13 -99.9  82.0 -999.9 -9.9 -9.999 -99.9 -99.99 -9.99
2019/08/21 21:48 EDT    1.22   1.25   10  243   12 -99.9  82.0 -999.9 -9.9 -9.999 -99.9 -99.99 -9.99
2019/08/21 21:54 EDT    1.26   1.31    9  242   11 -99.9  82.0 -999.9 -9.9 -9.999 -99.9 -99.99 -9.99
2019/08/21 22:00 EDT    1.31   1.36   10  238   12 -99.9  82.0 -999.9 -9.9 -9.999 -99.9 -99.99 -9.99
2019/08/21 22:06 EDT    1.35   1.41   11  234   12 -99.9  82.0 -999.9 -9.9 -9.999 -99.9 -99.99 -9.99
2019/08/21 22:12 EDT    1.40   1.47   10  229   13 -99.9  82.0 -999.9 -9.9 -9.999 -99.9 -99.99 -9.99
2019/08/21 22:18 EDT    1.45   1.52   10  222   12 -99.9  82.0 -999.9 -9.9 -9.999 -99.9 -99.99 -9.99
2019/08/21 22:24 EDT    1.50   1.60   10  215   11 -99.9  82.0 -999.9 -9.9 -9.999 -99.9 -99.99 -9.99
2019/08/21 22:30 EDT    1.55   1.66   10  215   12 -99.9  82.0 -999.9 -9.9 -9.999 -99.9 -99.99 -9.99
2019/08/21 22:36 EDT    1.59   1.68    9  210   12 -99.9  82.0 -999.9 -9.9 -9.999 -99.9 -99.99 -9.99
2019/08/21 22:42 EDT    1.64   1.72    9  210   11 -99.9  82.0 -999.9 -9.9 -9.999 -99.9 -99.99 -9.99
2019/08/21 22:48 EDT    1.69   1.80   12  216   14 -99.9  82.0 -999.9 -9.9 -9.999 -99.9 -99.99 -9.99
2019/08/21 22:54 EDT    1.74   1.88   11  216   13 -99.9  82.0 -999.9 -9.9 -9.999 -99.9 -99.99 -9.99
2019/08/21 23:00 EDT    1.79   1.92   12  221   14 -99.9  82.0 -999.9 -9.9 -9.999 -99.9 -99.99 -9.99
2019/08/21 23:06 EDT    1.84   1.97   11  226   14 -99.9  82.0 -999.9 -9.9 -9.999 -99.9 -99.99 -9.99
2019/08/21 23:12 EDT    1.89 -99.99 -999 -999 -999 -99.9 -99.9 -999.9 -9.9 -9.999 -99.9 -99.99 -9.99
2019/08/21 23:18 EDT    1.94 -99.99 -999 -999 -999 -99.9 -99.9 -999.9 -9.9 -9.999 -99.9 -99.99 -9.99
2019/08/21 23:24 EDT    1.99 -99.99 -999 -999 -999 -99.9 -99.9 -999.9 -9.9 -9.999 -99.9 -99.99 -9.99
2019/08/21 23:30 EDT    2.03 -99.99 -999 -999 -999 -99.9 -99.9 -999.9 -9.9 -9.999 -99.9 -99.99 -9.99

Revised: 08/08/2018
NOAA / National Ocean Service
Web site owner: Center for Operational Oceanographic Products and Services